<?xml version="1.0" encoding="UTF-8" standalone="no" ?>
<gpx xmlns="http://www.topografix.com/GPX/1/1" xmlns:xsi="http://www.w3.org/2001/XMLSchema-instance" xsi:schemaLocation="http://www.topografix.com/GPX/1/1 http://www.topografix.com/GPX/1/1/gpx.xsd" version="1.1" creator="VisuGPX - https://www.visugpx.com">
  <metadata>
    <name>pr7 randonnees desaignes</name>
    <desc><![CDATA[ras débroussaillage entre le rocher du sorcier et le chemin de sautereau]]></desc>
  </metadata>
  <trk>
    <name><![CDATA[Tracé 17 nov. 2015 09:25:32]]></name>
    <trkseg>
      <trkpt lat="44.99626" lon="4.51491">
        <ele>482</ele>
        <time>2015-11-17T08:25:32Z</time>
      </trkpt>
      <trkpt lat="44.99633" lon="4.51484">
        <ele>482</ele>
        <time>2015-11-17T08:25:38Z</time>
      </trkpt>
      <trkpt lat="44.99583" lon="4.51479">
        <ele>482</ele>
        <time>2015-11-17T08:25:41Z</time>
      </trkpt>
      <trkpt lat="44.99589" lon="4.51479">
        <ele>482</ele>
        <time>2015-11-17T08:26:13Z</time>
      </trkpt>
      <trkpt lat="44.99593" lon="4.51466">
        <ele>482</ele>
        <time>2015-11-17T08:26:17Z</time>
      </trkpt>
      <trkpt lat="44.99596" lon="4.51453">
        <ele>482</ele>
        <time>2015-11-17T08:26:21Z</time>
      </trkpt>
      <trkpt lat="44.99598" lon="4.51441">
        <ele>482</ele>
        <time>2015-11-17T08:26:25Z</time>
      </trkpt>
      <trkpt lat="44.99601" lon="4.51429">
        <ele>483</ele>
        <time>2015-11-17T08:26:29Z</time>
      </trkpt>
      <trkpt lat="44.99604" lon="4.51417">
        <ele>483</ele>
        <time>2015-11-17T08:26:34Z</time>
      </trkpt>
      <trkpt lat="44.99607" lon="4.51409">
        <ele>484</ele>
        <time>2015-11-17T08:26:41Z</time>
      </trkpt>
      <trkpt lat="44.99609" lon="4.51398">
        <ele>484</ele>
        <time>2015-11-17T08:26:47Z</time>
      </trkpt>
      <trkpt lat="44.99615" lon="4.51389">
        <ele>485</ele>
        <time>2015-11-17T08:26:55Z</time>
      </trkpt>
      <trkpt lat="44.99619" lon="4.51381">
        <ele>485</ele>
        <time>2015-11-17T08:27:03Z</time>
      </trkpt>
      <trkpt lat="44.9962" lon="4.51371">
        <ele>485</ele>
        <time>2015-11-17T08:27:10Z</time>
      </trkpt>
      <trkpt lat="44.99617" lon="4.51359">
        <ele>486</ele>
        <time>2015-11-17T08:27:14Z</time>
      </trkpt>
      <trkpt lat="44.99619" lon="4.51348">
        <ele>486</ele>
        <time>2015-11-17T08:27:21Z</time>
      </trkpt>
      <trkpt lat="44.99619" lon="4.51336">
        <ele>486</ele>
        <time>2015-11-17T08:27:27Z</time>
      </trkpt>
      <trkpt lat="44.99618" lon="4.51324">
        <ele>486</ele>
        <time>2015-11-17T08:27:37Z</time>
      </trkpt>
      <trkpt lat="44.99615" lon="4.51312">
        <ele>487</ele>
        <time>2015-11-17T08:28:03Z</time>
      </trkpt>
      <trkpt lat="44.99611" lon="4.51309">
        <ele>487</ele>
        <time>2015-11-17T08:28:06Z</time>
      </trkpt>
      <trkpt lat="44.99604" lon="4.513">
        <ele>487</ele>
        <time>2015-11-17T08:28:10Z</time>
      </trkpt>
      <trkpt lat="44.99601" lon="4.51291">
        <ele>487</ele>
        <time>2015-11-17T08:28:13Z</time>
      </trkpt>
      <trkpt lat="44.99596" lon="4.51281">
        <ele>487</ele>
        <time>2015-11-17T08:28:17Z</time>
      </trkpt>
      <trkpt lat="44.9959" lon="4.51271">
        <ele>487</ele>
        <time>2015-11-17T08:28:21Z</time>
      </trkpt>
      <trkpt lat="44.99587" lon="4.5126">
        <ele>487</ele>
        <time>2015-11-17T08:28:26Z</time>
      </trkpt>
      <trkpt lat="44.99591" lon="4.51253">
        <ele>487</ele>
        <time>2015-11-17T08:28:30Z</time>
      </trkpt>
      <trkpt lat="44.99594" lon="4.51244">
        <ele>488</ele>
        <time>2015-11-17T08:28:34Z</time>
      </trkpt>
      <trkpt lat="44.99592" lon="4.51235">
        <ele>489</ele>
        <time>2015-11-17T08:28:38Z</time>
      </trkpt>
      <trkpt lat="44.99587" lon="4.51212">
        <ele>490</ele>
        <time>2015-11-17T08:28:42Z</time>
      </trkpt>
      <trkpt lat="44.99589" lon="4.51193">
        <ele>491</ele>
        <time>2015-11-17T08:28:46Z</time>
      </trkpt>
      <trkpt lat="44.99594" lon="4.5118">
        <ele>492</ele>
        <time>2015-11-17T08:28:50Z</time>
      </trkpt>
      <trkpt lat="44.99598" lon="4.5117">
        <ele>492</ele>
        <time>2015-11-17T08:28:54Z</time>
      </trkpt>
      <trkpt lat="44.99601" lon="4.51156">
        <ele>491</ele>
        <time>2015-11-17T08:28:58Z</time>
      </trkpt>
      <trkpt lat="44.99605" lon="4.51148">
        <ele>491</ele>
        <time>2015-11-17T08:29:02Z</time>
      </trkpt>
      <trkpt lat="44.99609" lon="4.51137">
        <ele>492</ele>
        <time>2015-11-17T08:29:06Z</time>
      </trkpt>
      <trkpt lat="44.99613" lon="4.51114">
        <ele>491</ele>
        <time>2015-11-17T08:29:11Z</time>
      </trkpt>
      <trkpt lat="44.99617" lon="4.51102">
        <ele>491</ele>
        <time>2015-11-17T08:29:15Z</time>
      </trkpt>
      <trkpt lat="44.99618" lon="4.51092">
        <ele>491</ele>
        <time>2015-11-17T08:29:19Z</time>
      </trkpt>
      <trkpt lat="44.99622" lon="4.51084">
        <ele>490</ele>
        <time>2015-11-17T08:29:25Z</time>
      </trkpt>
      <trkpt lat="44.99621" lon="4.51068">
        <ele>490</ele>
        <time>2015-11-17T08:29:29Z</time>
      </trkpt>
      <trkpt lat="44.99618" lon="4.51054">
        <ele>490</ele>
        <time>2015-11-17T08:29:33Z</time>
      </trkpt>
      <trkpt lat="44.99615" lon="4.51032">
        <ele>490</ele>
        <time>2015-11-17T08:29:38Z</time>
      </trkpt>
      <trkpt lat="44.99622" lon="4.51009">
        <ele>490</ele>
        <time>2015-11-17T08:29:43Z</time>
      </trkpt>
      <trkpt lat="44.9963" lon="4.50992">
        <ele>489</ele>
        <time>2015-11-17T08:29:47Z</time>
      </trkpt>
      <trkpt lat="44.99643" lon="4.50982">
        <ele>489</ele>
        <time>2015-11-17T08:29:51Z</time>
      </trkpt>
      <trkpt lat="44.99654" lon="4.50974">
        <ele>489</ele>
        <time>2015-11-17T08:29:55Z</time>
      </trkpt>
      <trkpt lat="44.99658" lon="4.50966">
        <ele>488</ele>
        <time>2015-11-17T08:30:01Z</time>
      </trkpt>
      <trkpt lat="44.99661" lon="4.50957">
        <ele>488</ele>
        <time>2015-11-17T08:30:05Z</time>
      </trkpt>
      <trkpt lat="44.99665" lon="4.5095">
        <ele>487</ele>
        <time>2015-11-17T08:30:09Z</time>
      </trkpt>
      <trkpt lat="44.99665" lon="4.50936">
        <ele>488</ele>
        <time>2015-11-17T08:30:13Z</time>
      </trkpt>
      <trkpt lat="44.99667" lon="4.50928">
        <ele>489</ele>
        <time>2015-11-17T08:30:17Z</time>
      </trkpt>
      <trkpt lat="44.99668" lon="4.50918">
        <ele>489</ele>
        <time>2015-11-17T08:30:21Z</time>
      </trkpt>
      <trkpt lat="44.99673" lon="4.50909">
        <ele>490</ele>
        <time>2015-11-17T08:30:29Z</time>
      </trkpt>
      <trkpt lat="44.9968" lon="4.50905">
        <ele>490</ele>
        <time>2015-11-17T08:30:33Z</time>
      </trkpt>
      <trkpt lat="44.99688" lon="4.50903">
        <ele>490</ele>
        <time>2015-11-17T08:30:37Z</time>
      </trkpt>
      <trkpt lat="44.99694" lon="4.509">
        <ele>490</ele>
        <time>2015-11-17T08:30:40Z</time>
      </trkpt>
      <trkpt lat="44.99702" lon="4.50891">
        <ele>492</ele>
        <time>2015-11-17T08:30:45Z</time>
      </trkpt>
      <trkpt lat="44.99707" lon="4.50883">
        <ele>493</ele>
        <time>2015-11-17T08:30:49Z</time>
      </trkpt>
      <trkpt lat="44.99715" lon="4.50876">
        <ele>494</ele>
        <time>2015-11-17T08:30:54Z</time>
      </trkpt>
      <trkpt lat="44.99723" lon="4.50867">
        <ele>495</ele>
        <time>2015-11-17T08:30:59Z</time>
      </trkpt>
      <trkpt lat="44.99726" lon="4.50857">
        <ele>501</ele>
        <time>2015-11-17T08:31:07Z</time>
      </trkpt>
      <trkpt lat="44.99733" lon="4.50853">
        <ele>504</ele>
        <time>2015-11-17T08:31:11Z</time>
      </trkpt>
      <trkpt lat="44.99741" lon="4.50851">
        <ele>510</ele>
        <time>2015-11-17T08:31:15Z</time>
      </trkpt>
      <trkpt lat="44.99747" lon="4.50843">
        <ele>513</ele>
        <time>2015-11-17T08:31:19Z</time>
      </trkpt>
      <trkpt lat="44.99754" lon="4.50833">
        <ele>516</ele>
        <time>2015-11-17T08:31:23Z</time>
      </trkpt>
      <trkpt lat="44.99758" lon="4.5082">
        <ele>520</ele>
        <time>2015-11-17T08:31:27Z</time>
      </trkpt>
      <trkpt lat="44.99761" lon="4.5081">
        <ele>525</ele>
        <time>2015-11-17T08:31:31Z</time>
      </trkpt>
      <trkpt lat="44.99765" lon="4.50799">
        <ele>537</ele>
        <time>2015-11-17T08:32:31Z</time>
      </trkpt>
      <trkpt lat="44.99765" lon="4.50787">
        <ele>537</ele>
        <time>2015-11-17T08:32:53Z</time>
      </trkpt>
      <trkpt lat="44.99766" lon="4.50774">
        <ele>537</ele>
        <time>2015-11-17T08:32:57Z</time>
      </trkpt>
      <trkpt lat="44.99765" lon="4.5076">
        <ele>537</ele>
        <time>2015-11-17T08:33:01Z</time>
      </trkpt>
      <trkpt lat="44.99763" lon="4.50745">
        <ele>537</ele>
        <time>2015-11-17T08:33:05Z</time>
      </trkpt>
      <trkpt lat="44.99761" lon="4.50735">
        <ele>536</ele>
        <time>2015-11-17T08:33:08Z</time>
      </trkpt>
      <trkpt lat="44.99758" lon="4.50725">
        <ele>536</ele>
        <time>2015-11-17T08:33:11Z</time>
      </trkpt>
      <trkpt lat="44.99753" lon="4.50712">
        <ele>536</ele>
        <time>2015-11-17T08:33:16Z</time>
      </trkpt>
      <trkpt lat="44.9975" lon="4.50704">
        <ele>536</ele>
        <time>2015-11-17T08:33:19Z</time>
      </trkpt>
      <trkpt lat="44.99748" lon="4.50697">
        <ele>536</ele>
        <time>2015-11-17T08:33:23Z</time>
      </trkpt>
      <trkpt lat="44.99747" lon="4.50686">
        <ele>535</ele>
        <time>2015-11-17T08:33:26Z</time>
      </trkpt>
      <trkpt lat="44.99746" lon="4.50673">
        <ele>535</ele>
        <time>2015-11-17T08:33:31Z</time>
      </trkpt>
      <trkpt lat="44.99748" lon="4.50667">
        <ele>535</ele>
        <time>2015-11-17T08:33:34Z</time>
      </trkpt>
      <trkpt lat="44.99748" lon="4.50657">
        <ele>534</ele>
        <time>2015-11-17T08:33:37Z</time>
      </trkpt>
      <trkpt lat="44.99753" lon="4.50641">
        <ele>534</ele>
        <time>2015-11-17T08:33:41Z</time>
      </trkpt>
      <trkpt lat="44.99757" lon="4.50626">
        <ele>534</ele>
        <time>2015-11-17T08:33:45Z</time>
      </trkpt>
      <trkpt lat="44.99761" lon="4.50608">
        <ele>534</ele>
        <time>2015-11-17T08:33:50Z</time>
      </trkpt>
      <trkpt lat="44.99766" lon="4.50595">
        <ele>534</ele>
        <time>2015-11-17T08:33:54Z</time>
      </trkpt>
      <trkpt lat="44.9977" lon="4.50586">
        <ele>533</ele>
        <time>2015-11-17T08:33:58Z</time>
      </trkpt>
      <trkpt lat="44.99776" lon="4.50579">
        <ele>533</ele>
        <time>2015-11-17T08:34:02Z</time>
      </trkpt>
      <trkpt lat="44.99785" lon="4.50568">
        <ele>532</ele>
        <time>2015-11-17T08:34:07Z</time>
      </trkpt>
      <trkpt lat="44.99793" lon="4.50562">
        <ele>532</ele>
        <time>2015-11-17T08:34:11Z</time>
      </trkpt>
      <trkpt lat="44.998" lon="4.50555">
        <ele>531</ele>
        <time>2015-11-17T08:34:15Z</time>
      </trkpt>
      <trkpt lat="44.99808" lon="4.50548">
        <ele>531</ele>
        <time>2015-11-17T08:34:22Z</time>
      </trkpt>
      <trkpt lat="44.99812" lon="4.50546">
        <ele>530</ele>
        <time>2015-11-17T08:34:24Z</time>
      </trkpt>
      <trkpt lat="44.99816" lon="4.5054">
        <ele>530</ele>
        <time>2015-11-17T08:34:28Z</time>
      </trkpt>
      <trkpt lat="44.99826" lon="4.50544">
        <ele>529</ele>
        <time>2015-11-17T08:34:34Z</time>
      </trkpt>
      <trkpt lat="44.99833" lon="4.50542">
        <ele>528</ele>
        <time>2015-11-17T08:34:39Z</time>
      </trkpt>
      <trkpt lat="44.99838" lon="4.50541">
        <ele>528</ele>
        <time>2015-11-17T08:34:41Z</time>
      </trkpt>
      <trkpt lat="44.99844" lon="4.50536">
        <ele>526</ele>
        <time>2015-11-17T08:34:45Z</time>
      </trkpt>
      <trkpt lat="44.99855" lon="4.50532">
        <ele>525</ele>
        <time>2015-11-17T08:34:49Z</time>
      </trkpt>
      <trkpt lat="44.99865" lon="4.50524">
        <ele>526</ele>
        <time>2015-11-17T08:34:53Z</time>
      </trkpt>
      <trkpt lat="44.99866" lon="4.50523">
        <ele>526</ele>
        <time>2015-11-17T08:34:54Z</time>
      </trkpt>
      <trkpt lat="44.99876" lon="4.50515">
        <ele>526</ele>
        <time>2015-11-17T08:35:00Z</time>
      </trkpt>
      <trkpt lat="44.9988" lon="4.50509">
        <ele>525</ele>
        <time>2015-11-17T08:35:04Z</time>
      </trkpt>
      <trkpt lat="44.99885" lon="4.50502">
        <ele>524</ele>
        <time>2015-11-17T08:35:07Z</time>
      </trkpt>
      <trkpt lat="44.9989" lon="4.50495">
        <ele>523</ele>
        <time>2015-11-17T08:35:15Z</time>
      </trkpt>
      <trkpt lat="44.99906" lon="4.50473">
        <ele>522</ele>
        <time>2015-11-17T08:35:20Z</time>
      </trkpt>
      <trkpt lat="44.99914" lon="4.50463">
        <ele>522</ele>
        <time>2015-11-17T08:35:25Z</time>
      </trkpt>
      <trkpt lat="44.99925" lon="4.50452">
        <ele>520</ele>
        <time>2015-11-17T08:35:35Z</time>
      </trkpt>
      <trkpt lat="44.99935" lon="4.50443">
        <ele>519</ele>
        <time>2015-11-17T08:35:37Z</time>
      </trkpt>
      <trkpt lat="44.99939" lon="4.5043">
        <ele>517</ele>
        <time>2015-11-17T08:35:41Z</time>
      </trkpt>
      <trkpt lat="44.99942" lon="4.50411">
        <ele>516</ele>
        <time>2015-11-17T08:35:45Z</time>
      </trkpt>
      <trkpt lat="44.99942" lon="4.50405">
        <ele>515</ele>
        <time>2015-11-17T08:35:46Z</time>
      </trkpt>
      <trkpt lat="44.99951" lon="4.50394">
        <ele>514</ele>
        <time>2015-11-17T08:35:51Z</time>
      </trkpt>
      <trkpt lat="44.99956" lon="4.50391">
        <ele>514</ele>
        <time>2015-11-17T08:35:56Z</time>
      </trkpt>
      <trkpt lat="44.99956" lon="4.5038">
        <ele>512</ele>
        <time>2015-11-17T08:36:03Z</time>
      </trkpt>
      <trkpt lat="44.99953" lon="4.50371">
        <ele>511</ele>
        <time>2015-11-17T08:36:07Z</time>
      </trkpt>
      <trkpt lat="44.99952" lon="4.50362">
        <ele>511</ele>
        <time>2015-11-17T08:36:11Z</time>
      </trkpt>
      <trkpt lat="44.99949" lon="4.50352">
        <ele>509</ele>
        <time>2015-11-17T08:36:15Z</time>
      </trkpt>
      <trkpt lat="44.99949" lon="4.50344">
        <ele>508</ele>
        <time>2015-11-17T08:36:18Z</time>
      </trkpt>
      <trkpt lat="44.99945" lon="4.50331">
        <ele>507</ele>
        <time>2015-11-17T08:36:23Z</time>
      </trkpt>
      <trkpt lat="44.9994" lon="4.5032">
        <ele>507</ele>
        <time>2015-11-17T08:36:26Z</time>
      </trkpt>
      <trkpt lat="44.99932" lon="4.50308">
        <ele>506</ele>
        <time>2015-11-17T08:36:31Z</time>
      </trkpt>
      <trkpt lat="44.99932" lon="4.50301">
        <ele>505</ele>
        <time>2015-11-17T08:36:37Z</time>
      </trkpt>
      <trkpt lat="44.99931" lon="4.50286">
        <ele>504</ele>
        <time>2015-11-17T08:36:41Z</time>
      </trkpt>
      <trkpt lat="44.99933" lon="4.50275">
        <ele>504</ele>
        <time>2015-11-17T08:36:45Z</time>
      </trkpt>
      <trkpt lat="44.99935" lon="4.50263">
        <ele>503</ele>
        <time>2015-11-17T08:36:49Z</time>
      </trkpt>
      <trkpt lat="44.99935" lon="4.50252">
        <ele>503</ele>
        <time>2015-11-17T08:36:53Z</time>
      </trkpt>
      <trkpt lat="44.99938" lon="4.50239">
        <ele>502</ele>
        <time>2015-11-17T08:36:57Z</time>
      </trkpt>
      <trkpt lat="44.99938" lon="4.50223">
        <ele>502</ele>
        <time>2015-11-17T08:37:01Z</time>
      </trkpt>
      <trkpt lat="44.99937" lon="4.50207">
        <ele>502</ele>
        <time>2015-11-17T08:37:05Z</time>
      </trkpt>
      <trkpt lat="44.99935" lon="4.50192">
        <ele>502</ele>
        <time>2015-11-17T08:37:09Z</time>
      </trkpt>
      <trkpt lat="44.99935" lon="4.50175">
        <ele>502</ele>
        <time>2015-11-17T08:37:13Z</time>
      </trkpt>
      <trkpt lat="44.99928" lon="4.50153">
        <ele>504</ele>
        <time>2015-11-17T08:37:18Z</time>
      </trkpt>
      <trkpt lat="44.99925" lon="4.50135">
        <ele>505</ele>
        <time>2015-11-17T08:37:23Z</time>
      </trkpt>
      <trkpt lat="44.99925" lon="4.50126">
        <ele>505</ele>
        <time>2015-11-17T08:37:27Z</time>
      </trkpt>
      <trkpt lat="44.99919" lon="4.50117">
        <ele>507</ele>
        <time>2015-11-17T08:37:31Z</time>
      </trkpt>
      <trkpt lat="44.99909" lon="4.5011">
        <ele>509</ele>
        <time>2015-11-17T08:37:35Z</time>
      </trkpt>
      <trkpt lat="44.99906" lon="4.50102">
        <ele>511</ele>
        <time>2015-11-17T08:37:51Z</time>
      </trkpt>
      <trkpt lat="44.99913" lon="4.5008">
        <ele>513</ele>
        <time>2015-11-17T08:38:00Z</time>
      </trkpt>
      <trkpt lat="44.99917" lon="4.5006">
        <ele>513</ele>
        <time>2015-11-17T08:38:05Z</time>
      </trkpt>
      <trkpt lat="44.99916" lon="4.50052">
        <ele>513</ele>
        <time>2015-11-17T08:38:07Z</time>
      </trkpt>
      <trkpt lat="44.99915" lon="4.50048">
        <ele>513</ele>
        <time>2015-11-17T08:38:16Z</time>
      </trkpt>
      <trkpt lat="44.99917" lon="4.50008">
        <ele>514</ele>
        <time>2015-11-17T08:38:19Z</time>
      </trkpt>
      <trkpt lat="44.99917" lon="4.49989">
        <ele>514</ele>
        <time>2015-11-17T08:38:24Z</time>
      </trkpt>
      <trkpt lat="44.99904" lon="4.49971">
        <ele>513</ele>
        <time>2015-11-17T08:38:30Z</time>
      </trkpt>
      <trkpt lat="44.99898" lon="4.49962">
        <ele>513</ele>
        <time>2015-11-17T08:38:34Z</time>
      </trkpt>
      <trkpt lat="44.99893" lon="4.49949">
        <ele>513</ele>
        <time>2015-11-17T08:38:38Z</time>
      </trkpt>
      <trkpt lat="44.99889" lon="4.49949">
        <ele>513</ele>
        <time>2015-11-17T08:38:40Z</time>
      </trkpt>
      <trkpt lat="44.99887" lon="4.49934">
        <ele>512</ele>
        <time>2015-11-17T08:38:57Z</time>
      </trkpt>
      <trkpt lat="44.99901" lon="4.49902">
        <ele>510</ele>
        <time>2015-11-17T08:39:00Z</time>
      </trkpt>
      <trkpt lat="44.99908" lon="4.49895">
        <ele>509</ele>
        <time>2015-11-17T08:39:05Z</time>
      </trkpt>
      <trkpt lat="44.99912" lon="4.4989">
        <ele>510</ele>
        <time>2015-11-17T08:39:21Z</time>
      </trkpt>
      <trkpt lat="44.99931" lon="4.49865">
        <ele>514</ele>
        <time>2015-11-17T08:39:29Z</time>
      </trkpt>
      <trkpt lat="44.99939" lon="4.49856">
        <ele>515</ele>
        <time>2015-11-17T08:39:31Z</time>
      </trkpt>
      <trkpt lat="44.99947" lon="4.49853">
        <ele>516</ele>
        <time>2015-11-17T08:39:35Z</time>
      </trkpt>
      <trkpt lat="44.99951" lon="4.49851">
        <ele>516</ele>
        <time>2015-11-17T08:39:37Z</time>
      </trkpt>
      <trkpt lat="44.99964" lon="4.4983">
        <ele>517</ele>
        <time>2015-11-17T08:39:48Z</time>
      </trkpt>
      <trkpt lat="44.99967" lon="4.4982">
        <ele>519</ele>
        <time>2015-11-17T08:39:53Z</time>
      </trkpt>
      <trkpt lat="44.99971" lon="4.49816">
        <ele>519</ele>
        <time>2015-11-17T08:39:55Z</time>
      </trkpt>
      <trkpt lat="44.99981" lon="4.49809">
        <ele>519</ele>
        <time>2015-11-17T08:40:00Z</time>
      </trkpt>
      <trkpt lat="44.99987" lon="4.49807">
        <ele>521</ele>
        <time>2015-11-17T08:40:05Z</time>
      </trkpt>
      <trkpt lat="44.99991" lon="4.49802">
        <ele>521</ele>
        <time>2015-11-17T08:40:07Z</time>
      </trkpt>
      <trkpt lat="44.99997" lon="4.49796">
        <ele>522</ele>
        <time>2015-11-17T08:40:11Z</time>
      </trkpt>
      <trkpt lat="45.00004" lon="4.49784">
        <ele>525</ele>
        <time>2015-11-17T08:40:21Z</time>
      </trkpt>
      <trkpt lat="45.00021" lon="4.49766">
        <ele>529</ele>
        <time>2015-11-17T08:40:23Z</time>
      </trkpt>
      <trkpt lat="45.00024" lon="4.49757">
        <ele>530</ele>
        <time>2015-11-17T08:40:30Z</time>
      </trkpt>
      <trkpt lat="45.00029" lon="4.49738">
        <ele>532</ele>
        <time>2015-11-17T08:40:34Z</time>
      </trkpt>
      <trkpt lat="45.00029" lon="4.49729">
        <ele>532</ele>
        <time>2015-11-17T08:40:38Z</time>
      </trkpt>
      <trkpt lat="45.00028" lon="4.49717">
        <ele>533</ele>
        <time>2015-11-17T08:40:43Z</time>
      </trkpt>
      <trkpt lat="45.0003" lon="4.49707">
        <ele>534</ele>
        <time>2015-11-17T08:40:47Z</time>
      </trkpt>
      <trkpt lat="45.00034" lon="4.49694">
        <ele>535</ele>
        <time>2015-11-17T08:40:54Z</time>
      </trkpt>
      <trkpt lat="45.00033" lon="4.49682">
        <ele>536</ele>
        <time>2015-11-17T08:41:05Z</time>
      </trkpt>
      <trkpt lat="45.00031" lon="4.4967">
        <ele>537</ele>
        <time>2015-11-17T08:41:27Z</time>
      </trkpt>
      <trkpt lat="45.00036" lon="4.49653">
        <ele>538</ele>
        <time>2015-11-17T08:41:32Z</time>
      </trkpt>
      <trkpt lat="45.00036" lon="4.49636">
        <ele>539</ele>
        <time>2015-11-17T08:41:37Z</time>
      </trkpt>
      <trkpt lat="45.00035" lon="4.49626">
        <ele>539</ele>
        <time>2015-11-17T08:41:40Z</time>
      </trkpt>
      <trkpt lat="45.00033" lon="4.4962">
        <ele>539</ele>
        <time>2015-11-17T08:41:42Z</time>
      </trkpt>
      <trkpt lat="45.00035" lon="4.49605">
        <ele>539</ele>
        <time>2015-11-17T08:41:59Z</time>
      </trkpt>
      <trkpt lat="45.00031" lon="4.49568">
        <ele>540</ele>
        <time>2015-11-17T08:41:59Z</time>
      </trkpt>
      <trkpt lat="45.00028" lon="4.49547">
        <ele>540</ele>
        <time>2015-11-17T08:42:05Z</time>
      </trkpt>
      <trkpt lat="45.00026" lon="4.49536">
        <ele>541</ele>
        <time>2015-11-17T08:42:11Z</time>
      </trkpt>
      <trkpt lat="45.00025" lon="4.49521">
        <ele>542</ele>
        <time>2015-11-17T08:42:13Z</time>
      </trkpt>
      <trkpt lat="45.00018" lon="4.49505">
        <ele>542</ele>
        <time>2015-11-17T08:42:22Z</time>
      </trkpt>
      <trkpt lat="45.00018" lon="4.49492">
        <ele>542</ele>
        <time>2015-11-17T08:42:22Z</time>
      </trkpt>
      <trkpt lat="45.00015" lon="4.49466">
        <ele>543</ele>
        <time>2015-11-17T08:42:31Z</time>
      </trkpt>
      <trkpt lat="45.00003" lon="4.49447">
        <ele>544</ele>
        <time>2015-11-17T08:42:36Z</time>
      </trkpt>
      <trkpt lat="45" lon="4.49438">
        <ele>544</ele>
        <time>2015-11-17T08:42:39Z</time>
      </trkpt>
      <trkpt lat="44.99994" lon="4.49423">
        <ele>545</ele>
        <time>2015-11-17T08:42:44Z</time>
      </trkpt>
      <trkpt lat="44.9999" lon="4.49399">
        <ele>545</ele>
        <time>2015-11-17T08:42:57Z</time>
      </trkpt>
      <trkpt lat="44.99983" lon="4.49371">
        <ele>546</ele>
        <time>2015-11-17T08:43:00Z</time>
      </trkpt>
      <trkpt lat="44.9998" lon="4.49361">
        <ele>546</ele>
        <time>2015-11-17T08:43:05Z</time>
      </trkpt>
      <trkpt lat="44.9998" lon="4.49341">
        <ele>547</ele>
        <time>2015-11-17T08:43:10Z</time>
      </trkpt>
      <trkpt lat="44.99976" lon="4.49327">
        <ele>547</ele>
        <time>2015-11-17T08:43:17Z</time>
      </trkpt>
      <trkpt lat="44.99975" lon="4.4932">
        <ele>547</ele>
        <time>2015-11-17T08:43:17Z</time>
      </trkpt>
      <trkpt lat="44.99976" lon="4.49266">
        <ele>549</ele>
        <time>2015-11-17T08:43:35Z</time>
      </trkpt>
      <trkpt lat="44.99978" lon="4.49247">
        <ele>549</ele>
        <time>2015-11-17T08:43:37Z</time>
      </trkpt>
      <trkpt lat="44.99981" lon="4.49227">
        <ele>550</ele>
        <time>2015-11-17T08:43:42Z</time>
      </trkpt>
      <trkpt lat="44.99982" lon="4.49219">
        <ele>550</ele>
        <time>2015-11-17T08:43:55Z</time>
      </trkpt>
      <trkpt lat="44.99985" lon="4.49179">
        <ele>549</ele>
        <time>2015-11-17T08:43:55Z</time>
      </trkpt>
      <trkpt lat="44.99987" lon="4.49173">
        <ele>550</ele>
        <time>2015-11-17T08:44:00Z</time>
      </trkpt>
      <trkpt lat="44.99987" lon="4.49166">
        <ele>550</ele>
        <time>2015-11-17T08:44:00Z</time>
      </trkpt>
      <trkpt lat="44.99988" lon="4.49155">
        <ele>550</ele>
        <time>2015-11-17T08:44:05Z</time>
      </trkpt>
      <trkpt lat="44.99995" lon="4.49138">
        <ele>550</ele>
        <time>2015-11-17T08:44:07Z</time>
      </trkpt>
      <trkpt lat="44.99996" lon="4.49136">
        <ele>550</ele>
        <time>2015-11-17T08:44:21Z</time>
      </trkpt>
      <trkpt lat="44.99994" lon="4.49103">
        <ele>549</ele>
        <time>2015-11-17T08:44:23Z</time>
      </trkpt>
      <trkpt lat="44.99992" lon="4.4909">
        <ele>550</ele>
        <time>2015-11-17T08:44:27Z</time>
      </trkpt>
      <trkpt lat="44.99993" lon="4.49084">
        <ele>550</ele>
        <time>2015-11-17T08:44:29Z</time>
      </trkpt>
      <trkpt lat="44.99988" lon="4.49069">
        <ele>550</ele>
        <time>2015-11-17T08:44:34Z</time>
      </trkpt>
      <trkpt lat="44.99989" lon="4.49058">
        <ele>550</ele>
        <time>2015-11-17T08:44:37Z</time>
      </trkpt>
      <trkpt lat="44.99989" lon="4.49055">
        <ele>550</ele>
        <time>2015-11-17T08:44:55Z</time>
      </trkpt>
      <trkpt lat="44.99979" lon="4.48981">
        <ele>549</ele>
        <time>2015-11-17T08:45:00Z</time>
      </trkpt>
      <trkpt lat="44.99976" lon="4.48965">
        <ele>548</ele>
        <time>2015-11-17T08:45:05Z</time>
      </trkpt>
      <trkpt lat="44.99977" lon="4.48959">
        <ele>548</ele>
        <time>2015-11-17T08:45:07Z</time>
      </trkpt>
      <trkpt lat="44.99981" lon="4.48949">
        <ele>548</ele>
        <time>2015-11-17T08:45:12Z</time>
      </trkpt>
      <trkpt lat="44.99981" lon="4.48933">
        <ele>548</ele>
        <time>2015-11-17T08:45:26Z</time>
      </trkpt>
      <trkpt lat="44.9999" lon="4.48894">
        <ele>549</ele>
        <time>2015-11-17T08:45:30Z</time>
      </trkpt>
      <trkpt lat="44.99993" lon="4.48891">
        <ele>549</ele>
        <time>2015-11-17T08:45:35Z</time>
      </trkpt>
      <trkpt lat="45.00004" lon="4.4888">
        <ele>550</ele>
        <time>2015-11-17T08:45:37Z</time>
      </trkpt>
      <trkpt lat="45.00007" lon="4.48878">
        <ele>550</ele>
        <time>2015-11-17T08:45:44Z</time>
      </trkpt>
      <trkpt lat="45.00012" lon="4.48867">
        <ele>550</ele>
        <time>2015-11-17T08:45:48Z</time>
      </trkpt>
      <trkpt lat="45.00013" lon="4.48864">
        <ele>549</ele>
        <time>2015-11-17T08:45:50Z</time>
      </trkpt>
      <trkpt lat="45.00017" lon="4.48854">
        <ele>548</ele>
        <time>2015-11-17T08:45:58Z</time>
      </trkpt>
      <trkpt lat="45.00018" lon="4.48851">
        <ele>548</ele>
        <time>2015-11-17T08:46:00Z</time>
      </trkpt>
      <trkpt lat="45.00019" lon="4.4884">
        <ele>547</ele>
        <time>2015-11-17T08:46:05Z</time>
      </trkpt>
      <trkpt lat="45.00019" lon="4.4883">
        <ele>546</ele>
        <time>2015-11-17T08:46:12Z</time>
      </trkpt>
      <trkpt lat="45.00006" lon="4.48815">
        <ele>545</ele>
        <time>2015-11-17T08:46:33Z</time>
      </trkpt>
      <trkpt lat="44.99989" lon="4.48788">
        <ele>543</ele>
        <time>2015-11-17T08:46:37Z</time>
      </trkpt>
      <trkpt lat="44.99983" lon="4.48783">
        <ele>542</ele>
        <time>2015-11-17T08:46:46Z</time>
      </trkpt>
      <trkpt lat="44.99977" lon="4.48775">
        <ele>541</ele>
        <time>2015-11-17T08:46:52Z</time>
      </trkpt>
      <trkpt lat="44.99976" lon="4.48764">
        <ele>540</ele>
        <time>2015-11-17T08:47:00Z</time>
      </trkpt>
      <trkpt lat="44.99977" lon="4.48756">
        <ele>540</ele>
        <time>2015-11-17T08:47:04Z</time>
      </trkpt>
      <trkpt lat="44.99974" lon="4.48747">
        <ele>540</ele>
        <time>2015-11-17T08:47:07Z</time>
      </trkpt>
      <trkpt lat="44.99973" lon="4.48737">
        <ele>539</ele>
        <time>2015-11-17T08:47:12Z</time>
      </trkpt>
      <trkpt lat="44.99969" lon="4.48727">
        <ele>539</ele>
        <time>2015-11-17T08:47:18Z</time>
      </trkpt>
      <trkpt lat="44.9996" lon="4.48724">
        <ele>538</ele>
        <time>2015-11-17T08:47:28Z</time>
      </trkpt>
      <trkpt lat="44.99956" lon="4.48715">
        <ele>537</ele>
        <time>2015-11-17T08:47:32Z</time>
      </trkpt>
      <trkpt lat="44.99955" lon="4.48704">
        <ele>536</ele>
        <time>2015-11-17T08:47:41Z</time>
      </trkpt>
      <trkpt lat="44.99963" lon="4.48699">
        <ele>535</ele>
        <time>2015-11-17T08:47:48Z</time>
      </trkpt>
      <trkpt lat="44.99967" lon="4.48689">
        <ele>535</ele>
        <time>2015-11-17T08:47:53Z</time>
      </trkpt>
      <trkpt lat="44.99971" lon="4.48682">
        <ele>534</ele>
        <time>2015-11-17T08:47:57Z</time>
      </trkpt>
      <trkpt lat="44.99975" lon="4.48671">
        <ele>533</ele>
        <time>2015-11-17T08:48:01Z</time>
      </trkpt>
      <trkpt lat="44.99978" lon="4.4866">
        <ele>533</ele>
        <time>2015-11-17T08:48:05Z</time>
      </trkpt>
      <trkpt lat="44.99984" lon="4.48648">
        <ele>532</ele>
        <time>2015-11-17T08:48:10Z</time>
      </trkpt>
      <trkpt lat="44.99989" lon="4.48639">
        <ele>532</ele>
        <time>2015-11-17T08:48:14Z</time>
      </trkpt>
      <trkpt lat="44.99992" lon="4.48634">
        <ele>531</ele>
        <time>2015-11-17T08:48:17Z</time>
      </trkpt>
      <trkpt lat="45.00001" lon="4.48625">
        <ele>531</ele>
        <time>2015-11-17T08:48:21Z</time>
      </trkpt>
      <trkpt lat="45.00009" lon="4.48615">
        <ele>531</ele>
        <time>2015-11-17T08:48:25Z</time>
      </trkpt>
      <trkpt lat="45.00017" lon="4.48607">
        <ele>530</ele>
        <time>2015-11-17T08:48:29Z</time>
      </trkpt>
      <trkpt lat="45.00025" lon="4.48599">
        <ele>530</ele>
        <time>2015-11-17T08:48:33Z</time>
      </trkpt>
      <trkpt lat="45.0003" lon="4.48588">
        <ele>530</ele>
        <time>2015-11-17T08:48:37Z</time>
      </trkpt>
      <trkpt lat="45.00036" lon="4.48577">
        <ele>529</ele>
        <time>2015-11-17T08:48:40Z</time>
      </trkpt>
      <trkpt lat="45.00045" lon="4.48571">
        <ele>529</ele>
        <time>2015-11-17T08:48:43Z</time>
      </trkpt>
      <trkpt lat="45.00056" lon="4.4856">
        <ele>529</ele>
        <time>2015-11-17T08:48:47Z</time>
      </trkpt>
      <trkpt lat="45.0006" lon="4.48554">
        <ele>529</ele>
        <time>2015-11-17T08:48:49Z</time>
      </trkpt>
      <trkpt lat="45.00067" lon="4.48544">
        <ele>529</ele>
        <time>2015-11-17T08:48:52Z</time>
      </trkpt>
      <trkpt lat="45.00081" lon="4.48529">
        <ele>528</ele>
        <time>2015-11-17T08:48:59Z</time>
      </trkpt>
      <trkpt lat="45.00098" lon="4.48525">
        <ele>528</ele>
        <time>2015-11-17T08:49:06Z</time>
      </trkpt>
      <trkpt lat="45.00112" lon="4.48516">
        <ele>528</ele>
        <time>2015-11-17T08:49:11Z</time>
      </trkpt>
      <trkpt lat="45.0012" lon="4.48507">
        <ele>527</ele>
        <time>2015-11-17T08:49:26Z</time>
      </trkpt>
      <trkpt lat="45.00121" lon="4.48498">
        <ele>528</ele>
        <time>2015-11-17T08:49:33Z</time>
      </trkpt>
      <trkpt lat="45.00129" lon="4.48493">
        <ele>529</ele>
        <time>2015-11-17T08:49:44Z</time>
      </trkpt>
      <trkpt lat="45.00131" lon="4.48489">
        <ele>528</ele>
        <time>2015-11-17T08:49:44Z</time>
      </trkpt>
      <trkpt lat="45.00137" lon="4.48464">
        <ele>527</ele>
        <time>2015-11-17T08:49:58Z</time>
      </trkpt>
      <trkpt lat="45.00141" lon="4.48445">
        <ele>525</ele>
        <time>2015-11-17T08:49:59Z</time>
      </trkpt>
      <trkpt lat="45.00145" lon="4.48436">
        <ele>524</ele>
        <time>2015-11-17T08:50:06Z</time>
      </trkpt>
      <trkpt lat="45.00153" lon="4.48414">
        <ele>524</ele>
        <time>2015-11-17T08:50:08Z</time>
      </trkpt>
      <trkpt lat="45.00148" lon="4.48399">
        <ele>523</ele>
        <time>2015-11-17T08:50:23Z</time>
      </trkpt>
      <trkpt lat="45.00137" lon="4.48371">
        <ele>521</ele>
        <time>2015-11-17T08:50:23Z</time>
      </trkpt>
      <trkpt lat="45.00137" lon="4.48357">
        <ele>520</ele>
        <time>2015-11-17T08:50:32Z</time>
      </trkpt>
      <trkpt lat="45.00121" lon="4.48333">
        <ele>518</ele>
        <time>2015-11-17T08:50:36Z</time>
      </trkpt>
      <trkpt lat="45.00112" lon="4.48325">
        <ele>517</ele>
        <time>2015-11-17T08:50:40Z</time>
      </trkpt>
      <trkpt lat="45.00107" lon="4.48321">
        <ele>517</ele>
        <time>2015-11-17T08:50:42Z</time>
      </trkpt>
      <trkpt lat="45.00096" lon="4.48314">
        <ele>515</ele>
        <time>2015-11-17T08:50:47Z</time>
      </trkpt>
      <trkpt lat="45.0007" lon="4.48303">
        <ele>512</ele>
        <time>2015-11-17T08:50:58Z</time>
      </trkpt>
      <trkpt lat="45.00067" lon="4.483">
        <ele>512</ele>
        <time>2015-11-17T08:51:00Z</time>
      </trkpt>
      <trkpt lat="45.00054" lon="4.48282">
        <ele>510</ele>
        <time>2015-11-17T08:51:06Z</time>
      </trkpt>
      <trkpt lat="45.00053" lon="4.48277">
        <ele>509</ele>
        <time>2015-11-17T08:51:08Z</time>
      </trkpt>
      <trkpt lat="45.00065" lon="4.48248">
        <ele>507</ele>
        <time>2015-11-17T08:51:21Z</time>
      </trkpt>
      <trkpt lat="45.00075" lon="4.48235">
        <ele>506</ele>
        <time>2015-11-17T08:51:24Z</time>
      </trkpt>
      <trkpt lat="45.00086" lon="4.48221">
        <ele>505</ele>
        <time>2015-11-17T08:51:28Z</time>
      </trkpt>
      <trkpt lat="45.00093" lon="4.48214">
        <ele>505</ele>
        <time>2015-11-17T08:51:36Z</time>
      </trkpt>
      <trkpt lat="45.00097" lon="4.48202">
        <ele>504</ele>
        <time>2015-11-17T08:51:39Z</time>
      </trkpt>
      <trkpt lat="45.00104" lon="4.48185">
        <ele>504</ele>
        <time>2015-11-17T08:51:42Z</time>
      </trkpt>
      <trkpt lat="45.00116" lon="4.48167">
        <ele>504</ele>
        <time>2015-11-17T08:51:46Z</time>
      </trkpt>
      <trkpt lat="45.00128" lon="4.48153">
        <ele>504</ele>
        <time>2015-11-17T08:51:50Z</time>
      </trkpt>
      <trkpt lat="45.00136" lon="4.48132">
        <ele>505</ele>
        <time>2015-11-17T08:51:54Z</time>
      </trkpt>
      <trkpt lat="45.00143" lon="4.48127">
        <ele>505</ele>
        <time>2015-11-17T08:52:02Z</time>
      </trkpt>
      <trkpt lat="45.00149" lon="4.48117">
        <ele>505</ele>
        <time>2015-11-17T08:52:06Z</time>
      </trkpt>
      <trkpt lat="45.00153" lon="4.48106">
        <ele>505</ele>
        <time>2015-11-17T08:52:10Z</time>
      </trkpt>
      <trkpt lat="45.00154" lon="4.48096">
        <ele>505</ele>
        <time>2015-11-17T08:52:14Z</time>
      </trkpt>
      <trkpt lat="45.00158" lon="4.48091">
        <ele>507</ele>
        <time>2015-11-17T08:52:18Z</time>
      </trkpt>
      <trkpt lat="45.00166" lon="4.48094">
        <ele>510</ele>
        <time>2015-11-17T08:52:22Z</time>
      </trkpt>
      <trkpt lat="45.00174" lon="4.48083">
        <ele>511</ele>
        <time>2015-11-17T08:52:27Z</time>
      </trkpt>
      <trkpt lat="45.00183" lon="4.48075">
        <ele>511</ele>
        <time>2015-11-17T08:52:31Z</time>
      </trkpt>
      <trkpt lat="45.00189" lon="4.48068">
        <ele>511</ele>
        <time>2015-11-17T08:52:36Z</time>
      </trkpt>
      <trkpt lat="45.00189" lon="4.48059">
        <ele>511</ele>
        <time>2015-11-17T08:52:41Z</time>
      </trkpt>
      <trkpt lat="45.0018" lon="4.48053">
        <ele>512</ele>
        <time>2015-11-17T08:52:45Z</time>
      </trkpt>
      <trkpt lat="45.00174" lon="4.48046">
        <ele>512</ele>
        <time>2015-11-17T08:52:51Z</time>
      </trkpt>
      <trkpt lat="45.00181" lon="4.4804">
        <ele>513</ele>
        <time>2015-11-17T08:52:58Z</time>
      </trkpt>
      <trkpt lat="45.00188" lon="4.48034">
        <ele>513</ele>
        <time>2015-11-17T08:53:06Z</time>
      </trkpt>
      <trkpt lat="45.00195" lon="4.48028">
        <ele>514</ele>
        <time>2015-11-17T08:53:13Z</time>
      </trkpt>
      <trkpt lat="45.00203" lon="4.48024">
        <ele>516</ele>
        <time>2015-11-17T08:53:44Z</time>
      </trkpt>
      <trkpt lat="45.00205" lon="4.48012">
        <ele>522</ele>
        <time>2015-11-17T08:54:04Z</time>
      </trkpt>
      <trkpt lat="45.00209" lon="4.48001">
        <ele>523</ele>
        <time>2015-11-17T08:54:19Z</time>
      </trkpt>
      <trkpt lat="45.00214" lon="4.47991">
        <ele>526</ele>
        <time>2015-11-17T08:54:26Z</time>
      </trkpt>
      <trkpt lat="45.0022" lon="4.47982">
        <ele>527</ele>
        <time>2015-11-17T08:54:34Z</time>
      </trkpt>
      <trkpt lat="45.00223" lon="4.4797">
        <ele>528</ele>
        <time>2015-11-17T08:54:40Z</time>
      </trkpt>
      <trkpt lat="45.00226" lon="4.47956">
        <ele>528</ele>
        <time>2015-11-17T08:54:44Z</time>
      </trkpt>
      <trkpt lat="45.0023" lon="4.47939">
        <ele>528</ele>
        <time>2015-11-17T08:54:49Z</time>
      </trkpt>
      <trkpt lat="45.00233" lon="4.47927">
        <ele>528</ele>
        <time>2015-11-17T08:54:54Z</time>
      </trkpt>
      <trkpt lat="45.00233" lon="4.47917">
        <ele>529</ele>
        <time>2015-11-17T08:55:02Z</time>
      </trkpt>
      <trkpt lat="45.0023" lon="4.4791">
        <ele>533</ele>
        <time>2015-11-17T08:55:06Z</time>
      </trkpt>
      <trkpt lat="45.00224" lon="4.47899">
        <ele>537</ele>
        <time>2015-11-17T08:55:11Z</time>
      </trkpt>
      <trkpt lat="45.00217" lon="4.47891">
        <ele>547</ele>
        <time>2015-11-17T08:55:47Z</time>
      </trkpt>
      <trkpt lat="45.00211" lon="4.47901">
        <ele>552</ele>
        <time>2015-11-17T08:56:18Z</time>
      </trkpt>
      <trkpt lat="45.00204" lon="4.47912">
        <ele>553</ele>
        <time>2015-11-17T08:56:22Z</time>
      </trkpt>
      <trkpt lat="45.00196" lon="4.47925">
        <ele>554</ele>
        <time>2015-11-17T08:56:26Z</time>
      </trkpt>
      <trkpt lat="45.00192" lon="4.47936">
        <ele>555</ele>
        <time>2015-11-17T08:56:30Z</time>
      </trkpt>
      <trkpt lat="45.00185" lon="4.47952">
        <ele>556</ele>
        <time>2015-11-17T08:56:35Z</time>
      </trkpt>
      <trkpt lat="45.00182" lon="4.47963">
        <ele>556</ele>
        <time>2015-11-17T08:56:38Z</time>
      </trkpt>
      <trkpt lat="45.00174" lon="4.47972">
        <ele>557</ele>
        <time>2015-11-17T08:56:42Z</time>
      </trkpt>
      <trkpt lat="45.00167" lon="4.47976">
        <ele>557</ele>
        <time>2015-11-17T08:56:45Z</time>
      </trkpt>
      <trkpt lat="45.0016" lon="4.47981">
        <ele>557</ele>
        <time>2015-11-17T08:56:48Z</time>
      </trkpt>
      <trkpt lat="45.00147" lon="4.47992">
        <ele>558</ele>
        <time>2015-11-17T08:56:53Z</time>
      </trkpt>
      <trkpt lat="45.00138" lon="4.48008">
        <ele>559</ele>
        <time>2015-11-17T08:56:58Z</time>
      </trkpt>
      <trkpt lat="45.00134" lon="4.4802">
        <ele>560</ele>
        <time>2015-11-17T08:57:02Z</time>
      </trkpt>
      <trkpt lat="45.00129" lon="4.48037">
        <ele>561</ele>
        <time>2015-11-17T08:57:06Z</time>
      </trkpt>
      <trkpt lat="45.0013" lon="4.4805">
        <ele>562</ele>
        <time>2015-11-17T08:57:09Z</time>
      </trkpt>
      <trkpt lat="45.00132" lon="4.48061">
        <ele>563</ele>
        <time>2015-11-17T08:57:12Z</time>
      </trkpt>
      <trkpt lat="45.00134" lon="4.48077">
        <ele>563</ele>
        <time>2015-11-17T08:57:16Z</time>
      </trkpt>
      <trkpt lat="45.00133" lon="4.48098">
        <ele>565</ele>
        <time>2015-11-17T08:57:21Z</time>
      </trkpt>
      <trkpt lat="45.00129" lon="4.48107">
        <ele>565</ele>
        <time>2015-11-17T08:57:24Z</time>
      </trkpt>
      <trkpt lat="45.0012" lon="4.48121">
        <ele>565</ele>
        <time>2015-11-17T08:57:29Z</time>
      </trkpt>
      <trkpt lat="45.00116" lon="4.48134">
        <ele>566</ele>
        <time>2015-11-17T08:57:33Z</time>
      </trkpt>
      <trkpt lat="45.00109" lon="4.4814">
        <ele>566</ele>
        <time>2015-11-17T08:57:36Z</time>
      </trkpt>
      <trkpt lat="45.001" lon="4.48146">
        <ele>566</ele>
        <time>2015-11-17T08:57:40Z</time>
      </trkpt>
      <trkpt lat="45.00088" lon="4.4815">
        <ele>567</ele>
        <time>2015-11-17T08:57:44Z</time>
      </trkpt>
      <trkpt lat="45.00076" lon="4.48159">
        <ele>567</ele>
        <time>2015-11-17T08:57:48Z</time>
      </trkpt>
      <trkpt lat="45.00067" lon="4.48168">
        <ele>568</ele>
        <time>2015-11-17T08:57:52Z</time>
      </trkpt>
      <trkpt lat="45.00055" lon="4.48182">
        <ele>568</ele>
        <time>2015-11-17T08:57:56Z</time>
      </trkpt>
      <trkpt lat="45.00045" lon="4.48196">
        <ele>569</ele>
        <time>2015-11-17T08:57:59Z</time>
      </trkpt>
      <trkpt lat="45.00035" lon="4.48219">
        <ele>570</ele>
        <time>2015-11-17T08:58:03Z</time>
      </trkpt>
      <trkpt lat="45.00022" lon="4.48226">
        <ele>573</ele>
        <time>2015-11-17T08:58:08Z</time>
      </trkpt>
      <trkpt lat="44.99991" lon="4.48234">
        <ele>575</ele>
        <time>2015-11-17T08:58:12Z</time>
      </trkpt>
      <trkpt lat="44.99998" lon="4.48235">
        <ele>580</ele>
        <time>2015-11-17T08:58:22Z</time>
      </trkpt>
      <trkpt lat="45.00005" lon="4.48237">
        <ele>582</ele>
        <time>2015-11-17T08:58:26Z</time>
      </trkpt>
      <trkpt lat="45.00013" lon="4.48237">
        <ele>584</ele>
        <time>2015-11-17T08:58:30Z</time>
      </trkpt>
      <trkpt lat="45.0002" lon="4.48238">
        <ele>586</ele>
        <time>2015-11-17T08:58:41Z</time>
      </trkpt>
      <trkpt lat="45.00023" lon="4.48242">
        <ele>586</ele>
        <time>2015-11-17T08:58:42Z</time>
      </trkpt>
      <trkpt lat="45.0004" lon="4.48258">
        <ele>586</ele>
        <time>2015-11-17T08:59:00Z</time>
      </trkpt>
      <trkpt lat="45.00072" lon="4.48289">
        <ele>593</ele>
        <time>2015-11-17T08:59:00Z</time>
      </trkpt>
      <trkpt lat="45.00076" lon="4.48307">
        <ele>594</ele>
        <time>2015-11-17T08:59:07Z</time>
      </trkpt>
      <trkpt lat="45.00077" lon="4.48313">
        <ele>595</ele>
        <time>2015-11-17T08:59:08Z</time>
      </trkpt>
      <trkpt lat="45.00079" lon="4.4833">
        <ele>594</ele>
        <time>2015-11-17T08:59:13Z</time>
      </trkpt>
      <trkpt lat="45.00079" lon="4.48349">
        <ele>594</ele>
        <time>2015-11-17T08:59:18Z</time>
      </trkpt>
      <trkpt lat="45.00082" lon="4.48365">
        <ele>595</ele>
        <time>2015-11-17T08:59:30Z</time>
      </trkpt>
      <trkpt lat="45.00072" lon="4.48396">
        <ele>595</ele>
        <time>2015-11-17T08:59:35Z</time>
      </trkpt>
      <trkpt lat="45.00062" lon="4.48414">
        <ele>594</ele>
        <time>2015-11-17T08:59:39Z</time>
      </trkpt>
      <trkpt lat="45.00059" lon="4.48422">
        <ele>593</ele>
        <time>2015-11-17T08:59:41Z</time>
      </trkpt>
      <trkpt lat="45.00052" lon="4.48437">
        <ele>593</ele>
        <time>2015-11-17T08:59:45Z</time>
      </trkpt>
      <trkpt lat="45.00044" lon="4.48449">
        <ele>592</ele>
        <time>2015-11-17T08:59:49Z</time>
      </trkpt>
      <trkpt lat="45.00033" lon="4.48466">
        <ele>592</ele>
        <time>2015-11-17T08:59:54Z</time>
      </trkpt>
      <trkpt lat="45.00027" lon="4.48475">
        <ele>592</ele>
        <time>2015-11-17T08:59:59Z</time>
      </trkpt>
      <trkpt lat="45.00022" lon="4.48493">
        <ele>591</ele>
        <time>2015-11-17T09:00:03Z</time>
      </trkpt>
      <trkpt lat="45.00016" lon="4.48506">
        <ele>591</ele>
        <time>2015-11-17T09:00:06Z</time>
      </trkpt>
      <trkpt lat="45.00012" lon="4.48516">
        <ele>590</ele>
        <time>2015-11-17T09:00:15Z</time>
      </trkpt>
      <trkpt lat="44.99996" lon="4.48539">
        <ele>590</ele>
        <time>2015-11-17T09:00:18Z</time>
      </trkpt>
      <trkpt lat="44.99986" lon="4.48546">
        <ele>589</ele>
        <time>2015-11-17T09:00:22Z</time>
      </trkpt>
      <trkpt lat="44.99978" lon="4.48555">
        <ele>589</ele>
        <time>2015-11-17T09:00:25Z</time>
      </trkpt>
      <trkpt lat="44.99963" lon="4.48574">
        <ele>589</ele>
        <time>2015-11-17T09:00:30Z</time>
      </trkpt>
      <trkpt lat="44.9995" lon="4.48586">
        <ele>589</ele>
        <time>2015-11-17T09:00:35Z</time>
      </trkpt>
      <trkpt lat="44.9994" lon="4.48592">
        <ele>589</ele>
        <time>2015-11-17T09:00:39Z</time>
      </trkpt>
      <trkpt lat="44.99934" lon="4.486">
        <ele>589</ele>
        <time>2015-11-17T09:00:56Z</time>
      </trkpt>
      <trkpt lat="44.99924" lon="4.48654">
        <ele>586</ele>
        <time>2015-11-17T09:01:00Z</time>
      </trkpt>
      <trkpt lat="44.99934" lon="4.48671">
        <ele>585</ele>
        <time>2015-11-17T09:01:07Z</time>
      </trkpt>
      <trkpt lat="44.99938" lon="4.48681">
        <ele>584</ele>
        <time>2015-11-17T09:01:09Z</time>
      </trkpt>
      <trkpt lat="44.99942" lon="4.48686">
        <ele>584</ele>
        <time>2015-11-17T09:01:19Z</time>
      </trkpt>
      <trkpt lat="44.99958" lon="4.4871">
        <ele>581</ele>
        <time>2015-11-17T09:01:20Z</time>
      </trkpt>
      <trkpt lat="44.99966" lon="4.48714">
        <ele>581</ele>
        <time>2015-11-17T09:01:31Z</time>
      </trkpt>
      <trkpt lat="44.99998" lon="4.48747">
        <ele>579</ele>
        <time>2015-11-17T09:01:36Z</time>
      </trkpt>
      <trkpt lat="45.00008" lon="4.4876">
        <ele>580</ele>
        <time>2015-11-17T09:01:40Z</time>
      </trkpt>
      <trkpt lat="45.00012" lon="4.48774">
        <ele>580</ele>
        <time>2015-11-17T09:01:44Z</time>
      </trkpt>
      <trkpt lat="45.00012" lon="4.48799">
        <ele>582</ele>
        <time>2015-11-17T09:01:48Z</time>
      </trkpt>
      <trkpt lat="45.00012" lon="4.4881">
        <ele>583</ele>
        <time>2015-11-17T09:01:54Z</time>
      </trkpt>
      <trkpt lat="45.00014" lon="4.48821">
        <ele>584</ele>
        <time>2015-11-17T09:02:05Z</time>
      </trkpt>
      <trkpt lat="45.00014" lon="4.48832">
        <ele>584</ele>
        <time>2015-11-17T09:02:12Z</time>
      </trkpt>
      <trkpt lat="45.00013" lon="4.48845">
        <ele>585</ele>
        <time>2015-11-17T09:02:18Z</time>
      </trkpt>
      <trkpt lat="45.00009" lon="4.48853">
        <ele>586</ele>
        <time>2015-11-17T09:02:34Z</time>
      </trkpt>
      <trkpt lat="45.00005" lon="4.48865">
        <ele>588</ele>
        <time>2015-11-17T09:02:39Z</time>
      </trkpt>
      <trkpt lat="45.00002" lon="4.48876">
        <ele>589</ele>
        <time>2015-11-17T09:02:46Z</time>
      </trkpt>
      <trkpt lat="44.99998" lon="4.48887">
        <ele>591</ele>
        <time>2015-11-17T09:03:00Z</time>
      </trkpt>
      <trkpt lat="44.9999" lon="4.48892">
        <ele>595</ele>
        <time>2015-11-17T09:03:23Z</time>
      </trkpt>
      <trkpt lat="44.99988" lon="4.48894">
        <ele>595</ele>
        <time>2015-11-17T09:03:24Z</time>
      </trkpt>
      <trkpt lat="44.99973" lon="4.48911">
        <ele>596</ele>
        <time>2015-11-17T09:03:28Z</time>
      </trkpt>
      <trkpt lat="44.9997" lon="4.48913">
        <ele>596</ele>
        <time>2015-11-17T09:03:29Z</time>
      </trkpt>
      <trkpt lat="44.99956" lon="4.48929">
        <ele>597</ele>
        <time>2015-11-17T09:03:34Z</time>
      </trkpt>
      <trkpt lat="44.99956" lon="4.4892">
        <ele>597</ele>
        <time>2015-11-17T09:03:40Z</time>
      </trkpt>
      <trkpt lat="44.99978" lon="4.48954">
        <ele>596</ele>
        <time>2015-11-17T09:04:00Z</time>
      </trkpt>
      <trkpt lat="44.9999" lon="4.48971">
        <ele>595</ele>
        <time>2015-11-17T09:04:02Z</time>
      </trkpt>
      <trkpt lat="44.99997" lon="4.48984">
        <ele>594</ele>
        <time>2015-11-17T09:04:07Z</time>
      </trkpt>
      <trkpt lat="45.00004" lon="4.48993">
        <ele>594</ele>
        <time>2015-11-17T09:04:12Z</time>
      </trkpt>
      <trkpt lat="45.00005" lon="4.49006">
        <ele>594</ele>
        <time>2015-11-17T09:04:15Z</time>
      </trkpt>
      <trkpt lat="45.00003" lon="4.49019">
        <ele>593</ele>
        <time>2015-11-17T09:04:18Z</time>
      </trkpt>
      <trkpt lat="45.00003" lon="4.49038">
        <ele>592</ele>
        <time>2015-11-17T09:04:23Z</time>
      </trkpt>
      <trkpt lat="45" lon="4.49051">
        <ele>591</ele>
        <time>2015-11-17T09:04:28Z</time>
      </trkpt>
      <trkpt lat="44.99992" lon="4.49058">
        <ele>591</ele>
        <time>2015-11-17T09:04:32Z</time>
      </trkpt>
      <trkpt lat="44.99991" lon="4.49069">
        <ele>590</ele>
        <time>2015-11-17T09:04:38Z</time>
      </trkpt>
      <trkpt lat="45" lon="4.49075">
        <ele>589</ele>
        <time>2015-11-17T09:04:42Z</time>
      </trkpt>
      <trkpt lat="44.99999" lon="4.491">
        <ele>588</ele>
        <time>2015-11-17T09:04:47Z</time>
      </trkpt>
      <trkpt lat="44.99998" lon="4.4911">
        <ele>588</ele>
        <time>2015-11-17T09:04:49Z</time>
      </trkpt>
      <trkpt lat="44.99996" lon="4.49123">
        <ele>587</ele>
        <time>2015-11-17T09:04:54Z</time>
      </trkpt>
      <trkpt lat="44.99994" lon="4.49136">
        <ele>587</ele>
        <time>2015-11-17T09:04:57Z</time>
      </trkpt>
      <trkpt lat="44.99993" lon="4.49152">
        <ele>586</ele>
        <time>2015-11-17T09:05:01Z</time>
      </trkpt>
      <trkpt lat="44.99994" lon="4.49168">
        <ele>585</ele>
        <time>2015-11-17T09:05:06Z</time>
      </trkpt>
      <trkpt lat="44.99994" lon="4.49181">
        <ele>584</ele>
        <time>2015-11-17T09:05:11Z</time>
      </trkpt>
      <trkpt lat="44.99994" lon="4.49191">
        <ele>583</ele>
        <time>2015-11-17T09:05:15Z</time>
      </trkpt>
      <trkpt lat="44.99994" lon="4.49205">
        <ele>582</ele>
        <time>2015-11-17T09:05:19Z</time>
      </trkpt>
      <trkpt lat="44.9999" lon="4.49218">
        <ele>581</ele>
        <time>2015-11-17T09:05:23Z</time>
      </trkpt>
      <trkpt lat="44.99986" lon="4.49231">
        <ele>579</ele>
        <time>2015-11-17T09:05:27Z</time>
      </trkpt>
      <trkpt lat="44.99987" lon="4.49243">
        <ele>578</ele>
        <time>2015-11-17T09:05:31Z</time>
      </trkpt>
      <trkpt lat="44.99988" lon="4.49258">
        <ele>577</ele>
        <time>2015-11-17T09:05:35Z</time>
      </trkpt>
      <trkpt lat="44.99992" lon="4.49275">
        <ele>576</ele>
        <time>2015-11-17T09:05:39Z</time>
      </trkpt>
      <trkpt lat="44.99991" lon="4.49289">
        <ele>575</ele>
        <time>2015-11-17T09:05:43Z</time>
      </trkpt>
      <trkpt lat="44.9999" lon="4.49308">
        <ele>574</ele>
        <time>2015-11-17T09:05:47Z</time>
      </trkpt>
      <trkpt lat="44.99991" lon="4.49323">
        <ele>574</ele>
        <time>2015-11-17T09:05:51Z</time>
      </trkpt>
      <trkpt lat="44.99995" lon="4.49344">
        <ele>573</ele>
        <time>2015-11-17T09:05:55Z</time>
      </trkpt>
      <trkpt lat="45.00001" lon="4.49358">
        <ele>573</ele>
        <time>2015-11-17T09:05:59Z</time>
      </trkpt>
      <trkpt lat="45.00005" lon="4.49373">
        <ele>572</ele>
        <time>2015-11-17T09:06:03Z</time>
      </trkpt>
      <trkpt lat="45.00007" lon="4.49389">
        <ele>570</ele>
        <time>2015-11-17T09:06:07Z</time>
      </trkpt>
      <trkpt lat="45.00007" lon="4.49396">
        <ele>568</ele>
        <time>2015-11-17T09:06:09Z</time>
      </trkpt>
      <trkpt lat="45.00012" lon="4.49414">
        <ele>568</ele>
        <time>2015-11-17T09:06:22Z</time>
      </trkpt>
      <trkpt lat="45.00019" lon="4.49459">
        <ele>563</ele>
        <time>2015-11-17T09:06:28Z</time>
      </trkpt>
      <trkpt lat="45.00023" lon="4.49486">
        <ele>560</ele>
        <time>2015-11-17T09:06:30Z</time>
      </trkpt>
      <trkpt lat="45.00022" lon="4.49494">
        <ele>560</ele>
        <time>2015-11-17T09:06:36Z</time>
      </trkpt>
      <trkpt lat="45.00019" lon="4.4952">
        <ele>557</ele>
        <time>2015-11-17T09:06:40Z</time>
      </trkpt>
      <trkpt lat="45.00017" lon="4.49526">
        <ele>556</ele>
        <time>2015-11-17T09:06:49Z</time>
      </trkpt>
      <trkpt lat="45.00016" lon="4.49549">
        <ele>554</ele>
        <time>2015-11-17T09:06:53Z</time>
      </trkpt>
      <trkpt lat="45.00019" lon="4.4956">
        <ele>552</ele>
        <time>2015-11-17T09:07:00Z</time>
      </trkpt>
      <trkpt lat="45.00022" lon="4.49572">
        <ele>551</ele>
        <time>2015-11-17T09:07:08Z</time>
      </trkpt>
      <trkpt lat="45.00024" lon="4.49577">
        <ele>550</ele>
        <time>2015-11-17T09:07:12Z</time>
      </trkpt>
      <trkpt lat="45.00026" lon="4.49591">
        <ele>548</ele>
        <time>2015-11-17T09:07:20Z</time>
      </trkpt>
      <trkpt lat="45.00025" lon="4.49595">
        <ele>548</ele>
        <time>2015-11-17T09:07:22Z</time>
      </trkpt>
      <trkpt lat="45.00032" lon="4.49622">
        <ele>546</ele>
        <time>2015-11-17T09:07:31Z</time>
      </trkpt>
      <trkpt lat="45.00033" lon="4.49644">
        <ele>546</ele>
        <time>2015-11-17T09:07:36Z</time>
      </trkpt>
      <trkpt lat="45.00034" lon="4.49665">
        <ele>545</ele>
        <time>2015-11-17T09:07:40Z</time>
      </trkpt>
      <trkpt lat="45.00037" lon="4.49682">
        <ele>545</ele>
        <time>2015-11-17T09:07:44Z</time>
      </trkpt>
      <trkpt lat="45.00038" lon="4.49698">
        <ele>544</ele>
        <time>2015-11-17T09:07:48Z</time>
      </trkpt>
      <trkpt lat="45.00042" lon="4.49714">
        <ele>543</ele>
        <time>2015-11-17T09:07:52Z</time>
      </trkpt>
      <trkpt lat="45.0004" lon="4.49731">
        <ele>542</ele>
        <time>2015-11-17T09:07:56Z</time>
      </trkpt>
      <trkpt lat="45.00038" lon="4.49745">
        <ele>542</ele>
        <time>2015-11-17T09:07:59Z</time>
      </trkpt>
      <trkpt lat="45.00034" lon="4.49761">
        <ele>541</ele>
        <time>2015-11-17T09:08:03Z</time>
      </trkpt>
      <trkpt lat="45.00026" lon="4.49779">
        <ele>541</ele>
        <time>2015-11-17T09:08:08Z</time>
      </trkpt>
      <trkpt lat="45.00019" lon="4.49786">
        <ele>540</ele>
        <time>2015-11-17T09:08:12Z</time>
      </trkpt>
      <trkpt lat="45.00009" lon="4.49793">
        <ele>539</ele>
        <time>2015-11-17T09:08:16Z</time>
      </trkpt>
      <trkpt lat="45.00001" lon="4.49798">
        <ele>538</ele>
        <time>2015-11-17T09:08:20Z</time>
      </trkpt>
      <trkpt lat="44.99995" lon="4.49807">
        <ele>538</ele>
        <time>2015-11-17T09:08:24Z</time>
      </trkpt>
      <trkpt lat="44.99988" lon="4.49807">
        <ele>538</ele>
        <time>2015-11-17T09:08:30Z</time>
      </trkpt>
      <trkpt lat="44.9998" lon="4.4981">
        <ele>537</ele>
        <time>2015-11-17T09:08:41Z</time>
      </trkpt>
      <trkpt lat="44.99976" lon="4.49815">
        <ele>537</ele>
        <time>2015-11-17T09:08:45Z</time>
      </trkpt>
      <trkpt lat="44.99971" lon="4.49821">
        <ele>537</ele>
        <time>2015-11-17T09:08:49Z</time>
      </trkpt>
      <trkpt lat="44.99968" lon="4.49824">
        <ele>536</ele>
        <time>2015-11-17T09:08:52Z</time>
      </trkpt>
      <trkpt lat="44.99962" lon="4.49827">
        <ele>536</ele>
        <time>2015-11-17T09:09:00Z</time>
      </trkpt>
      <trkpt lat="44.99959" lon="4.4983">
        <ele>536</ele>
        <time>2015-11-17T09:09:05Z</time>
      </trkpt>
      <trkpt lat="44.99947" lon="4.49832">
        <ele>536</ele>
        <time>2015-11-17T09:09:10Z</time>
      </trkpt>
      <trkpt lat="44.99934" lon="4.49836">
        <ele>537</ele>
        <time>2015-11-17T09:09:18Z</time>
      </trkpt>
      <trkpt lat="44.99929" lon="4.49837">
        <ele>537</ele>
        <time>2015-11-17T09:09:19Z</time>
      </trkpt>
      <trkpt lat="44.99918" lon="4.49834">
        <ele>537</ele>
        <time>2015-11-17T09:09:32Z</time>
      </trkpt>
      <trkpt lat="44.99908" lon="4.4983">
        <ele>537</ele>
        <time>2015-11-17T09:09:32Z</time>
      </trkpt>
      <trkpt lat="44.99901" lon="4.4983">
        <ele>536</ele>
        <time>2015-11-17T09:09:38Z</time>
      </trkpt>
      <trkpt lat="44.9989" lon="4.49826">
        <ele>536</ele>
        <time>2015-11-17T09:09:43Z</time>
      </trkpt>
      <trkpt lat="44.99882" lon="4.49823">
        <ele>535</ele>
        <time>2015-11-17T09:09:57Z</time>
      </trkpt>
      <trkpt lat="44.99878" lon="4.49817">
        <ele>534</ele>
        <time>2015-11-17T09:09:59Z</time>
      </trkpt>
      <trkpt lat="44.99868" lon="4.49818">
        <ele>534</ele>
        <time>2015-11-17T09:10:07Z</time>
      </trkpt>
      <trkpt lat="44.99854" lon="4.49825">
        <ele>534</ele>
        <time>2015-11-17T09:10:09Z</time>
      </trkpt>
      <trkpt lat="44.99844" lon="4.49822">
        <ele>534</ele>
        <time>2015-11-17T09:10:12Z</time>
      </trkpt>
      <trkpt lat="44.99835" lon="4.49826">
        <ele>534</ele>
        <time>2015-11-17T09:10:18Z</time>
      </trkpt>
      <trkpt lat="44.9983" lon="4.49826">
        <ele>533</ele>
        <time>2015-11-17T09:10:23Z</time>
      </trkpt>
      <trkpt lat="44.99811" lon="4.49837">
        <ele>533</ele>
        <time>2015-11-17T09:10:32Z</time>
      </trkpt>
      <trkpt lat="44.99805" lon="4.49871">
        <ele>533</ele>
        <time>2015-11-17T09:10:36Z</time>
      </trkpt>
      <trkpt lat="44.99806" lon="4.4988">
        <ele>532</ele>
        <time>2015-11-17T09:10:40Z</time>
      </trkpt>
      <trkpt lat="44.99804" lon="4.49893">
        <ele>532</ele>
        <time>2015-11-17T09:10:48Z</time>
      </trkpt>
      <trkpt lat="44.99798" lon="4.49896">
        <ele>533</ele>
        <time>2015-11-17T09:10:52Z</time>
      </trkpt>
      <trkpt lat="44.99783" lon="4.49898">
        <ele>534</ele>
        <time>2015-11-17T09:10:58Z</time>
      </trkpt>
      <trkpt lat="44.99783" lon="4.49909">
        <ele>534</ele>
        <time>2015-11-17T09:11:08Z</time>
      </trkpt>
      <trkpt lat="44.99781" lon="4.49916">
        <ele>533</ele>
        <time>2015-11-17T09:11:14Z</time>
      </trkpt>
      <trkpt lat="44.99779" lon="4.49932">
        <ele>533</ele>
        <time>2015-11-17T09:11:25Z</time>
      </trkpt>
      <trkpt lat="44.99782" lon="4.49943">
        <ele>533</ele>
        <time>2015-11-17T09:11:30Z</time>
      </trkpt>
      <trkpt lat="44.99786" lon="4.49954">
        <ele>533</ele>
        <time>2015-11-17T09:11:38Z</time>
      </trkpt>
      <trkpt lat="44.99787" lon="4.49967">
        <ele>533</ele>
        <time>2015-11-17T09:11:46Z</time>
      </trkpt>
      <trkpt lat="44.99785" lon="4.49967">
        <ele>533</ele>
        <time>2015-11-17T09:12:00Z</time>
      </trkpt>
      <trkpt lat="44.99783" lon="4.49983">
        <ele>532</ele>
        <time>2015-11-17T09:12:03Z</time>
      </trkpt>
      <trkpt lat="44.9978" lon="4.4999">
        <ele>532</ele>
        <time>2015-11-17T09:12:18Z</time>
      </trkpt>
      <trkpt lat="44.99777" lon="4.50011">
        <ele>531</ele>
        <time>2015-11-17T09:12:23Z</time>
      </trkpt>
      <trkpt lat="44.99774" lon="4.50021">
        <ele>533</ele>
        <time>2015-11-17T09:12:28Z</time>
      </trkpt>
      <trkpt lat="44.99766" lon="4.50022">
        <ele>537</ele>
        <time>2015-11-17T09:12:42Z</time>
      </trkpt>
      <trkpt lat="44.9977" lon="4.50011">
        <ele>545</ele>
        <time>2015-11-17T09:13:02Z</time>
      </trkpt>
      <trkpt lat="44.99773" lon="4.50001">
        <ele>548</ele>
        <time>2015-11-17T09:13:14Z</time>
      </trkpt>
      <trkpt lat="44.99766" lon="4.5">
        <ele>549</ele>
        <time>2015-11-17T09:13:21Z</time>
      </trkpt>
      <trkpt lat="44.9976" lon="4.49994">
        <ele>549</ele>
        <time>2015-11-17T09:13:28Z</time>
      </trkpt>
      <trkpt lat="44.99758" lon="4.49982">
        <ele>549</ele>
        <time>2015-11-17T09:13:40Z</time>
      </trkpt>
      <trkpt lat="44.99761" lon="4.49976">
        <ele>549</ele>
        <time>2015-11-17T09:13:48Z</time>
      </trkpt>
      <trkpt lat="44.99765" lon="4.49963">
        <ele>549</ele>
        <time>2015-11-17T09:14:00Z</time>
      </trkpt>
      <trkpt lat="44.9976" lon="4.49957">
        <ele>549</ele>
        <time>2015-11-17T09:14:08Z</time>
      </trkpt>
      <trkpt lat="44.99753" lon="4.49952">
        <ele>549</ele>
        <time>2015-11-17T09:14:15Z</time>
      </trkpt>
      <trkpt lat="44.99748" lon="4.49944">
        <ele>549</ele>
        <time>2015-11-17T09:14:19Z</time>
      </trkpt>
      <trkpt lat="44.99742" lon="4.4994">
        <ele>550</ele>
        <time>2015-11-17T09:14:28Z</time>
      </trkpt>
      <trkpt lat="44.99735" lon="4.49932">
        <ele>550</ele>
        <time>2015-11-17T09:14:29Z</time>
      </trkpt>
      <trkpt lat="44.9973" lon="4.49928">
        <ele>550</ele>
        <time>2015-11-17T09:14:33Z</time>
      </trkpt>
      <trkpt lat="44.99726" lon="4.49922">
        <ele>551</ele>
        <time>2015-11-17T09:14:40Z</time>
      </trkpt>
      <trkpt lat="44.99722" lon="4.49918">
        <ele>551</ele>
        <time>2015-11-17T09:14:53Z</time>
      </trkpt>
      <trkpt lat="44.99716" lon="4.49907">
        <ele>552</ele>
        <time>2015-11-17T09:14:53Z</time>
      </trkpt>
      <trkpt lat="44.9971" lon="4.49897">
        <ele>552</ele>
        <time>2015-11-17T09:14:59Z</time>
      </trkpt>
      <trkpt lat="44.99702" lon="4.4989">
        <ele>552</ele>
        <time>2015-11-17T09:15:09Z</time>
      </trkpt>
      <trkpt lat="44.99697" lon="4.49882">
        <ele>552</ele>
        <time>2015-11-17T09:15:11Z</time>
      </trkpt>
      <trkpt lat="44.99692" lon="4.49875">
        <ele>551</ele>
        <time>2015-11-17T09:15:25Z</time>
      </trkpt>
      <trkpt lat="44.99683" lon="4.49867">
        <ele>551</ele>
        <time>2015-11-17T09:15:38Z</time>
      </trkpt>
      <trkpt lat="44.99663" lon="4.49855">
        <ele>551</ele>
        <time>2015-11-17T09:15:40Z</time>
      </trkpt>
      <trkpt lat="44.99659" lon="4.49854">
        <ele>551</ele>
        <time>2015-11-17T09:15:44Z</time>
      </trkpt>
      <trkpt lat="44.99653" lon="4.49852">
        <ele>551</ele>
        <time>2015-11-17T09:15:58Z</time>
      </trkpt>
      <trkpt lat="44.99635" lon="4.49832">
        <ele>557</ele>
        <time>2015-11-17T09:16:02Z</time>
      </trkpt>
      <trkpt lat="44.99632" lon="4.49829">
        <ele>559</ele>
        <time>2015-11-17T09:16:10Z</time>
      </trkpt>
      <trkpt lat="44.99623" lon="4.49837">
        <ele>563</ele>
        <time>2015-11-17T09:16:36Z</time>
      </trkpt>
      <trkpt lat="44.99623" lon="4.49839">
        <ele>564</ele>
        <time>2015-11-17T09:16:42Z</time>
      </trkpt>
      <trkpt lat="44.9962" lon="4.49851">
        <ele>565</ele>
        <time>2015-11-17T09:16:48Z</time>
      </trkpt>
      <trkpt lat="44.99619" lon="4.49857">
        <ele>567</ele>
        <time>2015-11-17T09:17:00Z</time>
      </trkpt>
      <trkpt lat="44.99616" lon="4.49878">
        <ele>569</ele>
        <time>2015-11-17T09:17:04Z</time>
      </trkpt>
      <trkpt lat="44.99614" lon="4.49881">
        <ele>571</ele>
        <time>2015-11-17T09:17:10Z</time>
      </trkpt>
      <trkpt lat="44.99606" lon="4.49894">
        <ele>577</ele>
        <time>2015-11-17T09:17:36Z</time>
      </trkpt>
      <trkpt lat="44.99605" lon="4.49912">
        <ele>581</ele>
        <time>2015-11-17T09:17:41Z</time>
      </trkpt>
      <trkpt lat="44.99604" lon="4.4992">
        <ele>583</ele>
        <time>2015-11-17T09:18:00Z</time>
      </trkpt>
      <trkpt lat="44.99606" lon="4.49931">
        <ele>587</ele>
        <time>2015-11-17T09:18:00Z</time>
      </trkpt>
      <trkpt lat="44.99611" lon="4.4994">
        <ele>590</ele>
        <time>2015-11-17T09:18:10Z</time>
      </trkpt>
      <trkpt lat="44.9961" lon="4.4995">
        <ele>591</ele>
        <time>2015-11-17T09:18:16Z</time>
      </trkpt>
      <trkpt lat="44.99612" lon="4.49967">
        <ele>594</ele>
        <time>2015-11-17T09:18:34Z</time>
      </trkpt>
      <trkpt lat="44.99616" lon="4.49984">
        <ele>596</ele>
        <time>2015-11-17T09:18:38Z</time>
      </trkpt>
      <trkpt lat="44.9962" lon="4.4999">
        <ele>597</ele>
        <time>2015-11-17T09:18:42Z</time>
      </trkpt>
      <trkpt lat="44.99623" lon="4.49992">
        <ele>598</ele>
        <time>2015-11-17T09:18:44Z</time>
      </trkpt>
      <trkpt lat="44.99627" lon="4.50007">
        <ele>601</ele>
        <time>2015-11-17T09:18:57Z</time>
      </trkpt>
      <trkpt lat="44.99634" lon="4.50013">
        <ele>608</ele>
        <time>2015-11-17T09:19:08Z</time>
      </trkpt>
      <trkpt lat="44.99639" lon="4.50023">
        <ele>613</ele>
        <time>2015-11-17T09:19:22Z</time>
      </trkpt>
      <trkpt lat="44.9964" lon="4.50026">
        <ele>614</ele>
        <time>2015-11-17T09:19:33Z</time>
      </trkpt>
      <trkpt lat="44.99643" lon="4.50038">
        <ele>619</ele>
        <time>2015-11-17T09:19:41Z</time>
      </trkpt>
      <trkpt lat="44.9964" lon="4.5004">
        <ele>620</ele>
        <time>2015-11-17T09:19:44Z</time>
      </trkpt>
      <trkpt lat="44.99631" lon="4.50052">
        <ele>622</ele>
        <time>2015-11-17T09:19:57Z</time>
      </trkpt>
      <trkpt lat="44.99627" lon="4.50051">
        <ele>624</ele>
        <time>2015-11-17T09:20:19Z</time>
      </trkpt>
      <trkpt lat="44.99618" lon="4.50041">
        <ele>633</ele>
        <time>2015-11-17T09:20:36Z</time>
      </trkpt>
      <trkpt lat="44.99626" lon="4.50045">
        <ele>636</ele>
        <time>2015-11-17T09:21:00Z</time>
      </trkpt>
      <trkpt lat="44.99626" lon="4.50052">
        <ele>643</ele>
        <time>2015-11-17T09:21:23Z</time>
      </trkpt>
      <trkpt lat="44.99629" lon="4.50061">
        <ele>643</ele>
        <time>2015-11-17T09:21:33Z</time>
      </trkpt>
      <trkpt lat="44.99632" lon="4.50067">
        <ele>644</ele>
        <time>2015-11-17T09:21:39Z</time>
      </trkpt>
      <trkpt lat="44.99634" lon="4.50073">
        <ele>644</ele>
        <time>2015-11-17T09:21:41Z</time>
      </trkpt>
      <trkpt lat="44.99638" lon="4.50081">
        <ele>644</ele>
        <time>2015-11-17T09:21:47Z</time>
      </trkpt>
      <trkpt lat="44.99638" lon="4.50086">
        <ele>645</ele>
        <time>2015-11-17T09:21:58Z</time>
      </trkpt>
      <trkpt lat="44.99642" lon="4.50107">
        <ele>645</ele>
        <time>2015-11-17T09:22:00Z</time>
      </trkpt>
      <trkpt lat="44.99648" lon="4.50126">
        <ele>646</ele>
        <time>2015-11-17T09:22:09Z</time>
      </trkpt>
      <trkpt lat="44.99651" lon="4.50131">
        <ele>646</ele>
        <time>2015-11-17T09:22:11Z</time>
      </trkpt>
      <trkpt lat="44.99639" lon="4.50154">
        <ele>646</ele>
        <time>2015-11-17T09:22:36Z</time>
      </trkpt>
      <trkpt lat="44.99646" lon="4.50148">
        <ele>647</ele>
        <time>2015-11-17T09:22:51Z</time>
      </trkpt>
      <trkpt lat="44.99649" lon="4.50137">
        <ele>647</ele>
        <time>2015-11-17T09:23:02Z</time>
      </trkpt>
      <trkpt lat="44.99646" lon="4.50126">
        <ele>647</ele>
        <time>2015-11-17T09:23:11Z</time>
      </trkpt>
      <trkpt lat="44.99647" lon="4.50116">
        <ele>646</ele>
        <time>2015-11-17T09:23:18Z</time>
      </trkpt>
      <trkpt lat="44.99645" lon="4.50108">
        <ele>647</ele>
        <time>2015-11-17T09:23:39Z</time>
      </trkpt>
      <trkpt lat="44.99645" lon="4.50093">
        <ele>646</ele>
        <time>2015-11-17T09:23:44Z</time>
      </trkpt>
      <trkpt lat="44.99639" lon="4.50084">
        <ele>646</ele>
        <time>2015-11-17T09:23:59Z</time>
      </trkpt>
      <trkpt lat="44.99634" lon="4.5009">
        <ele>646</ele>
        <time>2015-11-17T09:24:16Z</time>
      </trkpt>
      <trkpt lat="44.99629" lon="4.50105">
        <ele>646</ele>
        <time>2015-11-17T09:24:36Z</time>
      </trkpt>
      <trkpt lat="44.99622" lon="4.50109">
        <ele>647</ele>
        <time>2015-11-17T09:24:56Z</time>
      </trkpt>
      <trkpt lat="44.99616" lon="4.50111">
        <ele>648</ele>
        <time>2015-11-17T09:25:00Z</time>
      </trkpt>
      <trkpt lat="44.9961" lon="4.50107">
        <ele>648</ele>
        <time>2015-11-17T09:25:13Z</time>
      </trkpt>
      <trkpt lat="44.99601" lon="4.5011">
        <ele>647</ele>
        <time>2015-11-17T09:25:39Z</time>
      </trkpt>
      <trkpt lat="44.99592" lon="4.5011">
        <ele>648</ele>
        <time>2015-11-17T09:25:41Z</time>
      </trkpt>
      <trkpt lat="44.99583" lon="4.50109">
        <ele>646</ele>
        <time>2015-11-17T09:26:09Z</time>
      </trkpt>
      <trkpt lat="44.99579" lon="4.50116">
        <ele>645</ele>
        <time>2015-11-17T09:26:19Z</time>
      </trkpt>
      <trkpt lat="44.99568" lon="4.50128">
        <ele>642</ele>
        <time>2015-11-17T09:26:36Z</time>
      </trkpt>
      <trkpt lat="44.99567" lon="4.50134">
        <ele>642</ele>
        <time>2015-11-17T09:26:58Z</time>
      </trkpt>
      <trkpt lat="44.99575" lon="4.5014">
        <ele>640</ele>
        <time>2015-11-17T09:27:11Z</time>
      </trkpt>
      <trkpt lat="44.99576" lon="4.50148">
        <ele>639</ele>
        <time>2015-11-17T09:27:23Z</time>
      </trkpt>
      <trkpt lat="44.99574" lon="4.50157">
        <ele>638</ele>
        <time>2015-11-17T09:27:24Z</time>
      </trkpt>
      <trkpt lat="44.99571" lon="4.50161">
        <ele>638</ele>
        <time>2015-11-17T09:27:31Z</time>
      </trkpt>
      <trkpt lat="44.99567" lon="4.50194">
        <ele>634</ele>
        <time>2015-11-17T09:27:36Z</time>
      </trkpt>
      <trkpt lat="44.99565" lon="4.50211">
        <ele>632</ele>
        <time>2015-11-17T09:27:41Z</time>
      </trkpt>
      <trkpt lat="44.99567" lon="4.50227">
        <ele>630</ele>
        <time>2015-11-17T09:28:00Z</time>
      </trkpt>
      <trkpt lat="44.99549" lon="4.50274">
        <ele>622</ele>
        <time>2015-11-17T09:28:02Z</time>
      </trkpt>
      <trkpt lat="44.99548" lon="4.5028">
        <ele>621</ele>
        <time>2015-11-17T09:28:10Z</time>
      </trkpt>
      <trkpt lat="44.99546" lon="4.50302">
        <ele>616</ele>
        <time>2015-11-17T09:28:12Z</time>
      </trkpt>
      <trkpt lat="44.99539" lon="4.50323">
        <ele>614</ele>
        <time>2015-11-17T09:28:25Z</time>
      </trkpt>
      <trkpt lat="44.99535" lon="4.50356">
        <ele>608</ele>
        <time>2015-11-17T09:28:30Z</time>
      </trkpt>
      <trkpt lat="44.99536" lon="4.50375">
        <ele>606</ele>
        <time>2015-11-17T09:28:35Z</time>
      </trkpt>
      <trkpt lat="44.99535" lon="4.50386">
        <ele>605</ele>
        <time>2015-11-17T09:28:38Z</time>
      </trkpt>
      <trkpt lat="44.99531" lon="4.504">
        <ele>603</ele>
        <time>2015-11-17T09:28:42Z</time>
      </trkpt>
      <trkpt lat="44.99529" lon="4.5041">
        <ele>602</ele>
        <time>2015-11-17T09:28:45Z</time>
      </trkpt>
      <trkpt lat="44.99523" lon="4.50428">
        <ele>599</ele>
        <time>2015-11-17T09:28:50Z</time>
      </trkpt>
      <trkpt lat="44.9952" lon="4.50434">
        <ele>598</ele>
        <time>2015-11-17T09:29:00Z</time>
      </trkpt>
      <trkpt lat="44.99508" lon="4.50455">
        <ele>594</ele>
        <time>2015-11-17T09:29:00Z</time>
      </trkpt>
      <trkpt lat="44.995" lon="4.50475">
        <ele>590</ele>
        <time>2015-11-17T09:29:09Z</time>
      </trkpt>
      <trkpt lat="44.99498" lon="4.50481">
        <ele>589</ele>
        <time>2015-11-17T09:29:10Z</time>
      </trkpt>
      <trkpt lat="44.9948" lon="4.50519">
        <ele>581</ele>
        <time>2015-11-17T09:29:30Z</time>
      </trkpt>
      <trkpt lat="44.99481" lon="4.50528">
        <ele>579</ele>
        <time>2015-11-17T09:29:32Z</time>
      </trkpt>
      <trkpt lat="44.99486" lon="4.50536">
        <ele>578</ele>
        <time>2015-11-17T09:29:37Z</time>
      </trkpt>
      <trkpt lat="44.99487" lon="4.50549">
        <ele>576</ele>
        <time>2015-11-17T09:29:41Z</time>
      </trkpt>
      <trkpt lat="44.99484" lon="4.50571">
        <ele>572</ele>
        <time>2015-11-17T09:30:00Z</time>
      </trkpt>
      <trkpt lat="44.99485" lon="4.50615">
        <ele>565</ele>
        <time>2015-11-17T09:30:03Z</time>
      </trkpt>
      <trkpt lat="44.99486" lon="4.50625">
        <ele>563</ele>
        <time>2015-11-17T09:30:06Z</time>
      </trkpt>
      <trkpt lat="44.99485" lon="4.50642">
        <ele>560</ele>
        <time>2015-11-17T09:30:11Z</time>
      </trkpt>
      <trkpt lat="44.99485" lon="4.50651">
        <ele>558</ele>
        <time>2015-11-17T09:30:19Z</time>
      </trkpt>
      <trkpt lat="44.99483" lon="4.50665">
        <ele>556</ele>
        <time>2015-11-17T09:30:19Z</time>
      </trkpt>
      <trkpt lat="44.99472" lon="4.50709">
        <ele>550</ele>
        <time>2015-11-17T09:30:32Z</time>
      </trkpt>
      <trkpt lat="44.99467" lon="4.50725">
        <ele>547</ele>
        <time>2015-11-17T09:30:36Z</time>
      </trkpt>
      <trkpt lat="44.99459" lon="4.50737">
        <ele>545</ele>
        <time>2015-11-17T09:30:40Z</time>
      </trkpt>
      <trkpt lat="44.99447" lon="4.50748">
        <ele>544</ele>
        <time>2015-11-17T09:30:46Z</time>
      </trkpt>
      <trkpt lat="44.99444" lon="4.50753">
        <ele>543</ele>
        <time>2015-11-17T09:30:47Z</time>
      </trkpt>
      <trkpt lat="44.99437" lon="4.50762">
        <ele>542</ele>
        <time>2015-11-17T09:30:59Z</time>
      </trkpt>
      <trkpt lat="44.99427" lon="4.50783">
        <ele>540</ele>
        <time>2015-11-17T09:30:59Z</time>
      </trkpt>
      <trkpt lat="44.99421" lon="4.50794">
        <ele>539</ele>
        <time>2015-11-17T09:31:07Z</time>
      </trkpt>
      <trkpt lat="44.99408" lon="4.50812">
        <ele>537</ele>
        <time>2015-11-17T09:31:12Z</time>
      </trkpt>
      <trkpt lat="44.99398" lon="4.5083">
        <ele>534</ele>
        <time>2015-11-17T09:31:19Z</time>
      </trkpt>
      <trkpt lat="44.99398" lon="4.50865">
        <ele>544</ele>
        <time>2015-11-17T09:31:29Z</time>
      </trkpt>
      <trkpt lat="44.99391" lon="4.50878">
        <ele>544</ele>
        <time>2015-11-17T09:31:30Z</time>
      </trkpt>
      <trkpt lat="44.99386" lon="4.50891">
        <ele>546</ele>
        <time>2015-11-17T09:31:36Z</time>
      </trkpt>
      <trkpt lat="44.99386" lon="4.50904">
        <ele>546</ele>
        <time>2015-11-17T09:31:41Z</time>
      </trkpt>
      <trkpt lat="44.99384" lon="4.50911">
        <ele>545</ele>
        <time>2015-11-17T09:31:43Z</time>
      </trkpt>
      <trkpt lat="44.99382" lon="4.50916">
        <ele>544</ele>
        <time>2015-11-17T09:32:00Z</time>
      </trkpt>
      <trkpt lat="44.99376" lon="4.50927">
        <ele>542</ele>
        <time>2015-11-17T09:32:00Z</time>
      </trkpt>
      <trkpt lat="44.99375" lon="4.50929">
        <ele>542</ele>
        <time>2015-11-17T09:32:09Z</time>
      </trkpt>
      <trkpt lat="44.99367" lon="4.50938">
        <ele>541</ele>
        <time>2015-11-17T09:32:11Z</time>
      </trkpt>
      <trkpt lat="44.99365" lon="4.50946">
        <ele>541</ele>
        <time>2015-11-17T09:32:31Z</time>
      </trkpt>
      <trkpt lat="44.9936" lon="4.50995">
        <ele>542</ele>
        <time>2015-11-17T09:32:36Z</time>
      </trkpt>
      <trkpt lat="44.9936" lon="4.51007">
        <ele>542</ele>
        <time>2015-11-17T09:32:40Z</time>
      </trkpt>
      <trkpt lat="44.99365" lon="4.51019">
        <ele>542</ele>
        <time>2015-11-17T09:32:44Z</time>
      </trkpt>
      <trkpt lat="44.9937" lon="4.51035">
        <ele>542</ele>
        <time>2015-11-17T09:32:49Z</time>
      </trkpt>
      <trkpt lat="44.99375" lon="4.51046">
        <ele>543</ele>
        <time>2015-11-17T09:32:52Z</time>
      </trkpt>
      <trkpt lat="44.99378" lon="4.51057">
        <ele>543</ele>
        <time>2015-11-17T09:33:00Z</time>
      </trkpt>
      <trkpt lat="44.99391" lon="4.5108">
        <ele>543</ele>
        <time>2015-11-17T09:33:04Z</time>
      </trkpt>
      <trkpt lat="44.99393" lon="4.5109">
        <ele>543</ele>
        <time>2015-11-17T09:33:09Z</time>
      </trkpt>
      <trkpt lat="44.99397" lon="4.51108">
        <ele>542</ele>
        <time>2015-11-17T09:33:13Z</time>
      </trkpt>
      <trkpt lat="44.99412" lon="4.51135">
        <ele>541</ele>
        <time>2015-11-17T09:33:29Z</time>
      </trkpt>
      <trkpt lat="44.9943" lon="4.5115">
        <ele>539</ele>
        <time>2015-11-17T09:33:30Z</time>
      </trkpt>
      <trkpt lat="44.99445" lon="4.51163">
        <ele>536</ele>
        <time>2015-11-17T09:33:39Z</time>
      </trkpt>
      <trkpt lat="44.99449" lon="4.51165">
        <ele>536</ele>
        <time>2015-11-17T09:33:41Z</time>
      </trkpt>
      <trkpt lat="44.99453" lon="4.51168">
        <ele>535</ele>
        <time>2015-11-17T09:33:45Z</time>
      </trkpt>
      <trkpt lat="44.99468" lon="4.51175">
        <ele>531</ele>
        <time>2015-11-17T09:34:00Z</time>
      </trkpt>
      <trkpt lat="44.99485" lon="4.51181">
        <ele>529</ele>
        <time>2015-11-17T09:34:00Z</time>
      </trkpt>
      <trkpt lat="44.99495" lon="4.5119">
        <ele>527</ele>
        <time>2015-11-17T09:34:08Z</time>
      </trkpt>
      <trkpt lat="44.99503" lon="4.51203">
        <ele>524</ele>
        <time>2015-11-17T09:34:10Z</time>
      </trkpt>
      <trkpt lat="44.99508" lon="4.5122">
        <ele>519</ele>
        <time>2015-11-17T09:34:30Z</time>
      </trkpt>
      <trkpt lat="44.99517" lon="4.5125">
        <ele>511</ele>
        <time>2015-11-17T09:34:32Z</time>
      </trkpt>
      <trkpt lat="44.99527" lon="4.51267">
        <ele>508</ele>
        <time>2015-11-17T09:34:37Z</time>
      </trkpt>
      <trkpt lat="44.99536" lon="4.51281">
        <ele>505</ele>
        <time>2015-11-17T09:34:42Z</time>
      </trkpt>
      <trkpt lat="44.9954" lon="4.51286">
        <ele>503</ele>
        <time>2015-11-17T09:34:44Z</time>
      </trkpt>
      <trkpt lat="44.99547" lon="4.51295">
        <ele>501</ele>
        <time>2015-11-17T09:34:48Z</time>
      </trkpt>
      <trkpt lat="44.9955" lon="4.51299">
        <ele>500</ele>
        <time>2015-11-17T09:34:50Z</time>
      </trkpt>
      <trkpt lat="44.99565" lon="4.51319">
        <ele>496</ele>
        <time>2015-11-17T09:35:00Z</time>
      </trkpt>
      <trkpt lat="44.99575" lon="4.51315">
        <ele>492</ele>
        <time>2015-11-17T09:35:09Z</time>
      </trkpt>
      <trkpt lat="44.99585" lon="4.5131">
        <ele>488</ele>
        <time>2015-11-17T09:35:11Z</time>
      </trkpt>
      <trkpt lat="44.99587" lon="4.5131">
        <ele>487</ele>
        <time>2015-11-17T09:35:19Z</time>
      </trkpt>
      <trkpt lat="44.99614" lon="4.51317">
        <ele>485</ele>
        <time>2015-11-17T09:35:29Z</time>
      </trkpt>
      <trkpt lat="44.99614" lon="4.5134">
        <ele>479</ele>
        <time>2015-11-17T09:35:40Z</time>
      </trkpt>
      <trkpt lat="44.99609" lon="4.51381">
        <ele>471</ele>
        <time>2015-11-17T09:35:42Z</time>
      </trkpt>
      <trkpt lat="44.99605" lon="4.51398">
        <ele>474</ele>
        <time>2015-11-17T09:35:47Z</time>
      </trkpt>
      <trkpt lat="44.99606" lon="4.51412">
        <ele>475</ele>
        <time>2015-11-17T09:35:52Z</time>
      </trkpt>
      <trkpt lat="44.99604" lon="4.51422">
        <ele>477</ele>
        <time>2015-11-17T09:35:59Z</time>
      </trkpt>
      <trkpt lat="44.99601" lon="4.51433">
        <ele>478</ele>
        <time>2015-11-17T09:36:05Z</time>
      </trkpt>
      <trkpt lat="44.99601" lon="4.51435">
        <ele>478</ele>
        <time>2015-11-17T09:36:06Z</time>
      </trkpt>
      <trkpt lat="44.99601" lon="4.51435">
        <ele>478</ele>
        <time>2015-11-17T09:36:07Z</time>
      </trkpt>
    </trkseg>
  </trk>
</gpx>